<?xml version="1.0" encoding="UTF-8" standalone="no" ?>
<gpx xmlns="http://www.topografix.com/GPX/1/1" xmlns:xsi="http://www.w3.org/2001/XMLSchema-instance" xsi:schemaLocation="http://www.topografix.com/GPX/1/1 http://www.topografix.com/GPX/1/1/gpx.xsd" version="1.1" creator="VisuGPX - https://www.visugpx.com">
  <metadata>
    <name>H Banon à Batie</name>
  </metadata>
  <trk>
    <name><![CDATA[9244074-Banon à Ventoux]]></name>
    <trkseg>
      <trkpt lat="44.03664" lon="5.6269">
        <ele>791</ele>
        <time>2018-10-22T20:06:03Z</time>
      </trkpt>
      <trkpt lat="44.03806" lon="5.62533">
        <ele>805</ele>
        <time>2018-10-22T20:07:03Z</time>
      </trkpt>
      <trkpt lat="44.03988" lon="5.62309">
        <ele>815</ele>
        <time>2018-10-22T20:08:03Z</time>
      </trkpt>
      <trkpt lat="44.04097" lon="5.62035">
        <ele>817</ele>
        <time>2018-10-22T20:09:03Z</time>
      </trkpt>
      <trkpt lat="44.04201" lon="5.61667">
        <ele>838</ele>
        <time>2018-10-22T20:10:03Z</time>
      </trkpt>
      <trkpt lat="44.04476" lon="5.61788">
        <ele>839</ele>
        <time>2018-10-22T20:11:03Z</time>
      </trkpt>
      <trkpt lat="44.04559" lon="5.61791">
        <ele>851</ele>
        <time>2018-10-22T20:12:03Z</time>
      </trkpt>
      <trkpt lat="44.04426" lon="5.61668">
        <ele>862</ele>
        <time>2018-10-22T20:13:03Z</time>
      </trkpt>
      <trkpt lat="44.04719" lon="5.61733">
        <ele>889</ele>
        <time>2018-10-22T20:14:03Z</time>
      </trkpt>
      <trkpt lat="44.04437" lon="5.61531">
        <ele>915</ele>
        <time>2018-10-22T20:15:03Z</time>
      </trkpt>
      <trkpt lat="44.04828" lon="5.61542">
        <ele>950</ele>
        <time>2018-10-22T20:16:03Z</time>
      </trkpt>
      <trkpt lat="44.04841" lon="5.61481">
        <ele>953</ele>
        <time>2018-10-22T20:17:03Z</time>
      </trkpt>
      <trkpt lat="44.04917" lon="5.6143">
        <ele>945</ele>
        <time>2018-10-22T20:18:03Z</time>
      </trkpt>
      <trkpt lat="44.04963" lon="5.61362">
        <ele>937</ele>
        <time>2018-10-22T20:19:03Z</time>
      </trkpt>
      <trkpt lat="44.0493" lon="5.61261">
        <ele>934</ele>
        <time>2018-10-22T20:20:03Z</time>
      </trkpt>
      <trkpt lat="44.04927" lon="5.61145">
        <ele>938</ele>
        <time>2018-10-22T20:21:03Z</time>
      </trkpt>
      <trkpt lat="44.05036" lon="5.61001">
        <ele>938</ele>
        <time>2018-10-22T20:22:03Z</time>
      </trkpt>
      <trkpt lat="44.05075" lon="5.60846">
        <ele>934</ele>
        <time>2018-10-22T20:23:03Z</time>
      </trkpt>
      <trkpt lat="44.05179" lon="5.60759">
        <ele>930</ele>
        <time>2018-10-22T20:24:03Z</time>
      </trkpt>
      <trkpt lat="44.05271" lon="5.60563">
        <ele>926</ele>
        <time>2018-10-22T20:25:03Z</time>
      </trkpt>
      <trkpt lat="44.05306" lon="5.6046">
        <ele>924</ele>
        <time>2018-10-22T20:26:03Z</time>
      </trkpt>
      <trkpt lat="44.05389" lon="5.60362">
        <ele>924</ele>
        <time>2018-10-22T20:27:03Z</time>
      </trkpt>
      <trkpt lat="44.05358" lon="5.6012">
        <ele>918</ele>
        <time>2018-10-22T20:28:03Z</time>
      </trkpt>
      <trkpt lat="44.05485" lon="5.60126">
        <ele>919</ele>
        <time>2018-10-22T20:29:03Z</time>
      </trkpt>
      <trkpt lat="44.05419" lon="5.59998">
        <ele>913</ele>
        <time>2018-10-22T20:30:03Z</time>
      </trkpt>
      <trkpt lat="44.05467" lon="5.59889">
        <ele>916</ele>
        <time>2018-10-22T20:31:03Z</time>
      </trkpt>
      <trkpt lat="44.05354" lon="5.59859">
        <ele>918</ele>
        <time>2018-10-22T20:32:03Z</time>
      </trkpt>
      <trkpt lat="44.05306" lon="5.59749">
        <ele>924</ele>
        <time>2018-10-22T20:33:03Z</time>
      </trkpt>
      <trkpt lat="44.05406" lon="5.59592">
        <ele>936</ele>
        <time>2018-10-22T20:34:03Z</time>
      </trkpt>
      <trkpt lat="44.05537" lon="5.59373">
        <ele>947</ele>
        <time>2018-10-22T20:35:03Z</time>
      </trkpt>
      <trkpt lat="44.05642" lon="5.58772">
        <ele>961</ele>
        <time>2018-10-22T20:36:03Z</time>
      </trkpt>
      <trkpt lat="44.0583" lon="5.58361">
        <ele>959</ele>
        <time>2018-10-22T20:37:03Z</time>
      </trkpt>
      <trkpt lat="44.06078" lon="5.58238">
        <ele>947</ele>
        <time>2018-10-22T20:38:03Z</time>
      </trkpt>
      <trkpt lat="44.06208" lon="5.5813">
        <ele>945</ele>
        <time>2018-10-22T20:39:03Z</time>
      </trkpt>
      <trkpt lat="44.06161" lon="5.58044">
        <ele>946</ele>
        <time>2018-10-22T20:40:03Z</time>
      </trkpt>
      <trkpt lat="44.06353" lon="5.57868">
        <ele>938</ele>
        <time>2018-10-22T20:41:03Z</time>
      </trkpt>
      <trkpt lat="44.06478" lon="5.57837">
        <ele>937</ele>
        <time>2018-10-22T20:42:03Z</time>
      </trkpt>
      <trkpt lat="44.06496" lon="5.57781">
        <ele>928</ele>
        <time>2018-10-22T20:43:03Z</time>
      </trkpt>
      <trkpt lat="44.06628" lon="5.5773">
        <ele>927</ele>
        <time>2018-10-22T20:44:03Z</time>
      </trkpt>
      <trkpt lat="44.06793" lon="5.5774">
        <ele>925</ele>
        <time>2018-10-22T20:45:03Z</time>
      </trkpt>
      <trkpt lat="44.0691" lon="5.57679">
        <ele>931</ele>
        <time>2018-10-22T20:46:03Z</time>
      </trkpt>
      <trkpt lat="44.06995" lon="5.57577">
        <ele>936</ele>
        <time>2018-10-22T20:47:03Z</time>
      </trkpt>
      <trkpt lat="44.07266" lon="5.57439">
        <ele>959</ele>
        <time>2018-10-22T20:48:03Z</time>
      </trkpt>
      <trkpt lat="44.07349" lon="5.57069">
        <ele>953</ele>
        <time>2018-10-22T20:49:03Z</time>
      </trkpt>
      <trkpt lat="44.07385" lon="5.56694">
        <ele>952</ele>
        <time>2018-10-22T20:50:03Z</time>
      </trkpt>
      <trkpt lat="44.07422" lon="5.56412">
        <ele>945</ele>
        <time>2018-10-22T20:51:03Z</time>
      </trkpt>
      <trkpt lat="44.0737" lon="5.55979">
        <ele>938</ele>
        <time>2018-10-22T20:52:03Z</time>
      </trkpt>
      <trkpt lat="44.07525" lon="5.55922">
        <ele>931</ele>
        <time>2018-10-22T20:53:03Z</time>
      </trkpt>
      <trkpt lat="44.07748" lon="5.55604">
        <ele>930</ele>
        <time>2018-10-22T20:54:03Z</time>
      </trkpt>
      <trkpt lat="44.0807" lon="5.55279">
        <ele>925</ele>
        <time>2018-10-22T20:55:03Z</time>
      </trkpt>
      <trkpt lat="44.08148" lon="5.55092">
        <ele>929</ele>
        <time>2018-10-22T20:56:03Z</time>
      </trkpt>
      <trkpt lat="44.08334" lon="5.54897">
        <ele>941</ele>
        <time>2018-10-22T20:57:03Z</time>
      </trkpt>
      <trkpt lat="44.08334" lon="5.54644">
        <ele>936</ele>
        <time>2018-10-22T20:58:03Z</time>
      </trkpt>
      <trkpt lat="44.0823" lon="5.54391">
        <ele>921</ele>
        <time>2018-10-22T20:59:03Z</time>
      </trkpt>
      <trkpt lat="44.0821" lon="5.54225">
        <ele>912</ele>
        <time>2018-10-22T21:00:03Z</time>
      </trkpt>
      <trkpt lat="44.08329" lon="5.54074">
        <ele>906</ele>
        <time>2018-10-22T21:01:03Z</time>
      </trkpt>
      <trkpt lat="44.08448" lon="5.53922">
        <ele>902</ele>
        <time>2018-10-22T21:02:03Z</time>
      </trkpt>
      <trkpt lat="44.08588" lon="5.53749">
        <ele>897</ele>
        <time>2018-10-22T21:03:03Z</time>
      </trkpt>
      <trkpt lat="44.0877" lon="5.5354">
        <ele>902</ele>
        <time>2018-10-22T21:04:03Z</time>
      </trkpt>
      <trkpt lat="44.08746" lon="5.53365">
        <ele>898</ele>
        <time>2018-10-22T21:05:03Z</time>
      </trkpt>
      <trkpt lat="44.08716" lon="5.53128">
        <ele>902</ele>
        <time>2018-10-22T21:06:03Z</time>
      </trkpt>
      <trkpt lat="44.08724" lon="5.52734">
        <ele>890</ele>
        <time>2018-10-22T21:07:03Z</time>
      </trkpt>
      <trkpt lat="44.08642" lon="5.52424">
        <ele>893</ele>
        <time>2018-10-22T21:08:03Z</time>
      </trkpt>
      <trkpt lat="44.08598" lon="5.5209">
        <ele>884</ele>
        <time>2018-10-22T21:09:03Z</time>
      </trkpt>
      <trkpt lat="44.08646" lon="5.51841">
        <ele>879</ele>
        <time>2018-10-22T21:10:03Z</time>
      </trkpt>
      <trkpt lat="44.0865" lon="5.51617">
        <ele>881</ele>
        <time>2018-10-22T21:11:03Z</time>
      </trkpt>
      <trkpt lat="44.08441" lon="5.51435">
        <ele>871</ele>
        <time>2018-10-22T21:12:03Z</time>
      </trkpt>
      <trkpt lat="44.08171" lon="5.51495">
        <ele>859</ele>
        <time>2018-10-22T21:13:03Z</time>
      </trkpt>
      <trkpt lat="44.08145" lon="5.51617">
        <ele>862</ele>
        <time>2018-10-22T21:14:03Z</time>
      </trkpt>
      <trkpt lat="44.07983" lon="5.51514">
        <ele>863</ele>
        <time>2018-10-22T21:15:03Z</time>
      </trkpt>
      <trkpt lat="44.07966" lon="5.51435">
        <ele>861</ele>
        <time>2018-10-22T21:16:03Z</time>
      </trkpt>
      <trkpt lat="44.08009" lon="5.51301">
        <ele>858</ele>
        <time>2018-10-22T21:17:03Z</time>
      </trkpt>
      <trkpt lat="44.07892" lon="5.51083">
        <ele>855</ele>
        <time>2018-10-22T21:18:03Z</time>
      </trkpt>
      <trkpt lat="44.07818" lon="5.51004">
        <ele>853</ele>
        <time>2018-10-22T21:19:03Z</time>
      </trkpt>
      <trkpt lat="44.07761" lon="5.5087">
        <ele>852</ele>
        <time>2018-10-22T21:20:03Z</time>
      </trkpt>
      <trkpt lat="44.07665" lon="5.50791">
        <ele>850</ele>
        <time>2018-10-22T21:21:03Z</time>
      </trkpt>
      <trkpt lat="44.07617" lon="5.50664">
        <ele>849</ele>
        <time>2018-10-22T21:22:03Z</time>
      </trkpt>
      <trkpt lat="44.07691" lon="5.50403">
        <ele>846</ele>
        <time>2018-10-22T21:23:03Z</time>
      </trkpt>
      <trkpt lat="44.07661" lon="5.50209">
        <ele>846</ele>
        <time>2018-10-22T21:24:03Z</time>
      </trkpt>
      <trkpt lat="44.07713" lon="5.502">
        <ele>851</ele>
        <time>2018-10-22T21:25:03Z</time>
      </trkpt>
      <trkpt lat="44.07717" lon="5.50106">
        <ele>853</ele>
        <time>2018-10-22T21:26:03Z</time>
      </trkpt>
      <trkpt lat="44.07639" lon="5.50039">
        <ele>850</ele>
        <time>2018-10-22T21:27:03Z</time>
      </trkpt>
      <trkpt lat="44.07565" lon="5.49954">
        <ele>846</ele>
        <time>2018-10-22T21:28:03Z</time>
      </trkpt>
      <trkpt lat="44.07556" lon="5.4979">
        <ele>842</ele>
        <time>2018-10-22T21:29:03Z</time>
      </trkpt>
      <trkpt lat="44.07534" lon="5.49644">
        <ele>836</ele>
        <time>2018-10-22T21:30:03Z</time>
      </trkpt>
      <trkpt lat="44.07547" lon="5.49559">
        <ele>833</ele>
        <time>2018-10-22T21:31:03Z</time>
      </trkpt>
      <trkpt lat="44.07495" lon="5.49456">
        <ele>833</ele>
        <time>2018-10-22T21:32:03Z</time>
      </trkpt>
      <trkpt lat="44.07743" lon="5.49377">
        <ele>847</ele>
        <time>2018-10-22T21:33:03Z</time>
      </trkpt>
      <trkpt lat="44.08014" lon="5.49195">
        <ele>845</ele>
        <time>2018-10-22T21:34:03Z</time>
      </trkpt>
      <trkpt lat="44.08188" lon="5.49153">
        <ele>840</ele>
        <time>2018-10-22T21:35:03Z</time>
      </trkpt>
      <trkpt lat="44.08406" lon="5.49031">
        <ele>845</ele>
        <time>2018-10-22T21:36:03Z</time>
      </trkpt>
      <trkpt lat="44.08672" lon="5.48807">
        <ele>844</ele>
        <time>2018-10-22T21:37:03Z</time>
      </trkpt>
      <trkpt lat="44.0889" lon="5.48613">
        <ele>835</ele>
        <time>2018-10-22T21:38:03Z</time>
      </trkpt>
      <trkpt lat="44.09143" lon="5.48091">
        <ele>823</ele>
        <time>2018-10-22T21:39:03Z</time>
      </trkpt>
      <trkpt lat="44.09439" lon="5.47866">
        <ele>835</ele>
        <time>2018-10-22T21:40:03Z</time>
      </trkpt>
      <trkpt lat="44.09583" lon="5.47629">
        <ele>831</ele>
        <time>2018-10-22T21:41:03Z</time>
      </trkpt>
      <trkpt lat="44.09675" lon="5.47302">
        <ele>831</ele>
        <time>2018-10-22T21:42:03Z</time>
      </trkpt>
      <trkpt lat="44.09923" lon="5.4695">
        <ele>827</ele>
        <time>2018-10-22T21:43:03Z</time>
      </trkpt>
      <trkpt lat="44.09919" lon="5.46846">
        <ele>820</ele>
        <time>2018-10-22T21:44:03Z</time>
      </trkpt>
      <trkpt lat="44.10023" lon="5.46616">
        <ele>820</ele>
        <time>2018-10-22T21:45:03Z</time>
      </trkpt>
      <trkpt lat="44.10145" lon="5.46403">
        <ele>823</ele>
        <time>2018-10-22T21:46:03Z</time>
      </trkpt>
      <trkpt lat="44.10315" lon="5.46331">
        <ele>829</ele>
        <time>2018-10-22T21:47:03Z</time>
      </trkpt>
      <trkpt lat="44.10481" lon="5.46373">
        <ele>838</ele>
        <time>2018-10-22T21:48:03Z</time>
      </trkpt>
      <trkpt lat="44.10651" lon="5.46207">
        <ele>830</ele>
        <time>2018-10-22T21:49:03Z</time>
      </trkpt>
      <trkpt lat="44.10817" lon="5.45969">
        <ele>826</ele>
        <time>2018-10-22T21:50:03Z</time>
      </trkpt>
      <trkpt lat="44.10936" lon="5.45601">
        <ele>823</ele>
        <time>2018-10-22T21:51:03Z</time>
      </trkpt>
      <trkpt lat="44.11024" lon="5.45182">
        <ele>826</ele>
        <time>2018-10-22T21:52:03Z</time>
      </trkpt>
      <trkpt lat="44.11102" lon="5.44763">
        <ele>805</ele>
        <time>2018-10-22T21:53:03Z</time>
      </trkpt>
      <trkpt lat="44.11107" lon="5.44569">
        <ele>805</ele>
        <time>2018-10-22T21:54:03Z</time>
      </trkpt>
      <trkpt lat="44.111" lon="5.4443">
        <ele>809</ele>
        <time>2018-10-22T21:55:03Z</time>
      </trkpt>
      <trkpt lat="44.11053" lon="5.44257">
        <ele>812</ele>
        <time>2018-10-22T21:56:03Z</time>
      </trkpt>
      <trkpt lat="44.11155" lon="5.44343">
        <ele>814</ele>
        <time>2018-10-22T21:57:03Z</time>
      </trkpt>
      <trkpt lat="44.11298" lon="5.4391">
        <ele>811</ele>
        <time>2018-10-22T21:58:03Z</time>
      </trkpt>
      <trkpt lat="44.11386" lon="5.4367">
        <ele>805</ele>
        <time>2018-10-22T21:59:03Z</time>
      </trkpt>
      <trkpt lat="44.11485" lon="5.43608">
        <ele>801</ele>
        <time>2018-10-22T22:00:03Z</time>
      </trkpt>
      <trkpt lat="44.11569" lon="5.43626">
        <ele>804</ele>
        <time>2018-10-22T22:01:03Z</time>
      </trkpt>
      <trkpt lat="44.11653" lon="5.43481">
        <ele>799</ele>
        <time>2018-10-22T22:02:03Z</time>
      </trkpt>
      <trkpt lat="44.11807" lon="5.43374">
        <ele>801</ele>
        <time>2018-10-22T22:03:03Z</time>
      </trkpt>
      <trkpt lat="44.11914" lon="5.43246">
        <ele>812</ele>
        <time>2018-10-22T22:04:03Z</time>
      </trkpt>
      <trkpt lat="44.12122" lon="5.43062">
        <ele>817</ele>
        <time>2018-10-22T22:05:03Z</time>
      </trkpt>
      <trkpt lat="44.11525" lon="5.42766">
        <ele>830</ele>
        <time>2018-10-22T22:06:03Z</time>
      </trkpt>
      <trkpt lat="44.11441" lon="5.42894">
        <ele>824</ele>
        <time>2018-10-22T22:07:03Z</time>
      </trkpt>
      <trkpt lat="44.11082" lon="5.42542">
        <ele>823</ele>
        <time>2018-10-22T22:08:03Z</time>
      </trkpt>
      <trkpt lat="44.10785" lon="5.42241">
        <ele>816</ele>
        <time>2018-10-22T22:09:03Z</time>
      </trkpt>
      <trkpt lat="44.10572" lon="5.42317">
        <ele>814</ele>
        <time>2018-10-22T22:10:03Z</time>
      </trkpt>
      <trkpt lat="44.10496" lon="5.42251">
        <ele>814</ele>
        <time>2018-10-22T22:11:03Z</time>
      </trkpt>
      <trkpt lat="44.104" lon="5.42174">
        <ele>810</ele>
        <time>2018-10-22T22:12:03Z</time>
      </trkpt>
      <trkpt lat="44.10331" lon="5.422">
        <ele>808</ele>
        <time>2018-10-22T22:13:03Z</time>
      </trkpt>
      <trkpt lat="44.1029" lon="5.42261">
        <ele>807</ele>
        <time>2018-10-22T22:14:03Z</time>
      </trkpt>
      <trkpt lat="44.10169" lon="5.42103">
        <ele>801</ele>
        <time>2018-10-22T22:15:03Z</time>
      </trkpt>
      <trkpt lat="44.09832" lon="5.41608">
        <ele>800</ele>
        <time>2018-10-22T22:16:03Z</time>
      </trkpt>
      <trkpt lat="44.09601" lon="5.41266">
        <ele>796</ele>
        <time>2018-10-22T22:17:03Z</time>
      </trkpt>
      <trkpt lat="44.09546" lon="5.41179">
        <ele>796</ele>
        <time>2018-10-22T22:18:03Z</time>
      </trkpt>
      <trkpt lat="44.09517" lon="5.41072">
        <ele>793</ele>
        <time>2018-10-22T22:19:03Z</time>
      </trkpt>
      <trkpt lat="44.09451" lon="5.41041">
        <ele>788</ele>
        <time>2018-10-22T22:20:03Z</time>
      </trkpt>
      <trkpt lat="44.09359" lon="5.41169">
        <ele>784</ele>
        <time>2018-10-22T22:21:03Z</time>
      </trkpt>
      <trkpt lat="44.09293" lon="5.41154">
        <ele>779</ele>
        <time>2018-10-22T22:22:03Z</time>
      </trkpt>
      <trkpt lat="44.09216" lon="5.4099">
        <ele>769</ele>
        <time>2018-10-22T22:23:03Z</time>
      </trkpt>
      <trkpt lat="44.09202" lon="5.40883">
        <ele>768</ele>
        <time>2018-10-22T22:24:03Z</time>
      </trkpt>
      <trkpt lat="44.09356" lon="5.40817">
        <ele>757</ele>
        <time>2018-10-22T22:25:03Z</time>
      </trkpt>
      <trkpt lat="44.09187" lon="5.40714">
        <ele>744</ele>
        <time>2018-10-22T22:26:03Z</time>
      </trkpt>
      <trkpt lat="44.09329" lon="5.4068">
        <ele>722</ele>
        <time>2018-10-22T22:27:03Z</time>
      </trkpt>
      <trkpt lat="44.09714" lon="5.40641">
        <ele>700</ele>
        <time>2018-10-22T22:28:03Z</time>
      </trkpt>
      <trkpt lat="44.09732" lon="5.4056">
        <ele>696</ele>
        <time>2018-10-22T22:29:03Z</time>
      </trkpt>
      <trkpt lat="44.0993" lon="5.40272">
        <ele>713</ele>
        <time>2018-10-22T22:30:03Z</time>
      </trkpt>
      <trkpt lat="44.0996" lon="5.40138">
        <ele>719</ele>
        <time>2018-10-22T22:31:03Z</time>
      </trkpt>
      <trkpt lat="44.10012" lon="5.3997">
        <ele>725</ele>
        <time>2018-10-22T22:32:03Z</time>
      </trkpt>
      <trkpt lat="44.10118" lon="5.39617">
        <ele>741</ele>
        <time>2018-10-22T22:33:03Z</time>
      </trkpt>
      <trkpt lat="44.10221" lon="5.39316">
        <ele>761</ele>
        <time>2018-10-22T22:34:03Z</time>
      </trkpt>
      <trkpt lat="44.10338" lon="5.39168">
        <ele>778</ele>
        <time>2018-10-22T22:35:03Z</time>
      </trkpt>
      <trkpt lat="44.10441" lon="5.39005">
        <ele>789</ele>
        <time>2018-10-22T22:36:03Z</time>
      </trkpt>
      <trkpt lat="44.10664" lon="5.38928">
        <ele>804</ele>
        <time>2018-10-22T22:37:03Z</time>
      </trkpt>
      <trkpt lat="44.10587" lon="5.38821">
        <ele>815</ele>
        <time>2018-10-22T22:38:03Z</time>
      </trkpt>
      <trkpt lat="44.10851" lon="5.38663">
        <ele>834</ele>
        <time>2018-10-22T22:39:03Z</time>
      </trkpt>
      <trkpt lat="44.10983" lon="5.38382">
        <ele>840</ele>
        <time>2018-10-22T22:40:03Z</time>
      </trkpt>
      <trkpt lat="44.1114" lon="5.37964">
        <ele>859</ele>
        <time>2018-10-22T22:41:03Z</time>
      </trkpt>
      <trkpt lat="44.11276" lon="5.37673">
        <ele>868</ele>
        <time>2018-10-22T22:42:03Z</time>
      </trkpt>
      <trkpt lat="44.11342" lon="5.37494">
        <ele>876</ele>
        <time>2018-10-22T22:43:03Z</time>
      </trkpt>
      <trkpt lat="44.11302" lon="5.37479">
        <ele>871</ele>
        <time>2018-10-22T22:44:03Z</time>
      </trkpt>
      <trkpt lat="44.11237" lon="5.37508">
        <ele>865</ele>
        <time>2018-10-22T22:45:03Z</time>
      </trkpt>
      <trkpt lat="44.11079" lon="5.37537">
        <ele>856</ele>
        <time>2018-10-22T22:46:03Z</time>
      </trkpt>
      <trkpt lat="44.11035" lon="5.37566">
        <ele>852</ele>
        <time>2018-10-22T22:47:03Z</time>
      </trkpt>
      <trkpt lat="44.11014" lon="5.37627">
        <ele>851</ele>
        <time>2018-10-22T22:48:03Z</time>
      </trkpt>
      <trkpt lat="44.10864" lon="5.37663">
        <ele>840</ele>
        <time>2018-10-22T22:49:03Z</time>
      </trkpt>
      <trkpt lat="44.10659" lon="5.37544">
        <ele>814</ele>
        <time>2018-10-22T22:50:03Z</time>
      </trkpt>
      <trkpt lat="44.10566" lon="5.37457">
        <ele>801</ele>
        <time>2018-10-22T22:51:03Z</time>
      </trkpt>
      <trkpt lat="44.10529" lon="5.37436">
        <ele>800</ele>
        <time>2018-10-22T22:52:03Z</time>
      </trkpt>
      <trkpt lat="44.10511" lon="5.37407">
        <ele>801</ele>
        <time>2018-10-22T22:53:03Z</time>
      </trkpt>
      <trkpt lat="44.10514" lon="5.37306">
        <ele>802</ele>
        <time>2018-10-22T22:54:03Z</time>
      </trkpt>
      <trkpt lat="44.1048" lon="5.37338">
        <ele>802</ele>
        <time>2018-10-22T22:55:03Z</time>
      </trkpt>
      <trkpt lat="44.10428" lon="5.37291">
        <ele>799</ele>
        <time>2018-10-22T22:56:03Z</time>
      </trkpt>
      <trkpt lat="44.10405" lon="5.37165">
        <ele>787</ele>
        <time>2018-10-22T22:57:03Z</time>
      </trkpt>
      <trkpt lat="44.10348" lon="5.37183">
        <ele>783</ele>
        <time>2018-10-22T22:58:03Z</time>
      </trkpt>
      <trkpt lat="44.10327" lon="5.37144">
        <ele>777</ele>
        <time>2018-10-22T22:59:03Z</time>
      </trkpt>
      <trkpt lat="44.10317" lon="5.37057">
        <ele>769</ele>
        <time>2018-10-22T23:00:03Z</time>
      </trkpt>
      <trkpt lat="44.10066" lon="5.37028">
        <ele>747</ele>
        <time>2018-10-22T23:01:03Z</time>
      </trkpt>
      <trkpt lat="44.09939" lon="5.37021">
        <ele>735</ele>
        <time>2018-10-22T23:02:03Z</time>
      </trkpt>
      <trkpt lat="44.09918" lon="5.36891">
        <ele>730</ele>
        <time>2018-10-22T23:03:03Z</time>
      </trkpt>
      <trkpt lat="44.09766" lon="5.37021">
        <ele>724</ele>
        <time>2018-10-22T23:04:03Z</time>
      </trkpt>
      <trkpt lat="44.09644" lon="5.3699">
        <ele>718</ele>
        <time>2018-10-22T23:05:03Z</time>
      </trkpt>
      <trkpt lat="44.095" lon="5.37087">
        <ele>716</ele>
        <time>2018-10-22T23:06:03Z</time>
      </trkpt>
      <trkpt lat="44.09195" lon="5.37306">
        <ele>697</ele>
        <time>2018-10-22T23:07:03Z</time>
      </trkpt>
      <trkpt lat="44.09191" lon="5.37118">
        <ele>704</ele>
        <time>2018-10-22T23:08:03Z</time>
      </trkpt>
      <trkpt lat="44.09186" lon="5.36972">
        <ele>716</ele>
        <time>2018-10-22T23:09:03Z</time>
      </trkpt>
      <trkpt lat="44.09199" lon="5.36843">
        <ele>733</ele>
        <time>2018-10-22T23:10:03Z</time>
      </trkpt>
      <trkpt lat="44.09242" lon="5.36783">
        <ele>745</ele>
        <time>2018-10-22T23:11:03Z</time>
      </trkpt>
      <trkpt lat="44.0923" lon="5.36727">
        <ele>757</ele>
        <time>2018-10-22T23:12:03Z</time>
      </trkpt>
      <trkpt lat="44.09341" lon="5.36783">
        <ele>755</ele>
        <time>2018-10-22T23:13:03Z</time>
      </trkpt>
      <trkpt lat="44.09289" lon="5.3665">
        <ele>781</ele>
        <time>2018-10-22T23:14:03Z</time>
      </trkpt>
      <trkpt lat="44.0943" lon="5.3671">
        <ele>781</ele>
        <time>2018-10-22T23:15:03Z</time>
      </trkpt>
      <trkpt lat="44.09477" lon="5.3665">
        <ele>794</ele>
        <time>2018-10-22T23:16:03Z</time>
      </trkpt>
      <trkpt lat="44.09413" lon="5.36624">
        <ele>800</ele>
        <time>2018-10-22T23:17:03Z</time>
      </trkpt>
      <trkpt lat="44.09515" lon="5.36529">
        <ele>816</ele>
        <time>2018-10-22T23:18:03Z</time>
      </trkpt>
      <trkpt lat="44.0988" lon="5.36235">
        <ele>865</ele>
        <time>2018-10-22T23:19:03Z</time>
      </trkpt>
      <trkpt lat="44.0955" lon="5.36206">
        <ele>901</ele>
        <time>2018-10-22T23:20:03Z</time>
      </trkpt>
      <trkpt lat="44.09498" lon="5.3617">
        <ele>907</ele>
        <time>2018-10-22T23:21:03Z</time>
      </trkpt>
      <trkpt lat="44.09482" lon="5.36055">
        <ele>920</ele>
        <time>2018-10-22T23:22:03Z</time>
      </trkpt>
      <trkpt lat="44.09519" lon="5.36114">
        <ele>920</ele>
        <time>2018-10-22T23:23:03Z</time>
      </trkpt>
      <trkpt lat="44.09628" lon="5.36085">
        <ele>935</ele>
        <time>2018-10-22T23:24:03Z</time>
      </trkpt>
      <trkpt lat="44.09805" lon="5.3597">
        <ele>957</ele>
        <time>2018-10-22T23:25:03Z</time>
      </trkpt>
      <trkpt lat="44.09653" lon="5.35919">
        <ele>970</ele>
        <time>2018-10-22T23:26:03Z</time>
      </trkpt>
      <trkpt lat="44.09641" lon="5.35851">
        <ele>972</ele>
        <time>2018-10-22T23:27:03Z</time>
      </trkpt>
      <trkpt lat="44.09695" lon="5.35735">
        <ele>981</ele>
        <time>2018-10-22T23:28:03Z</time>
      </trkpt>
      <trkpt lat="44.09801" lon="5.35603">
        <ele>996</ele>
        <time>2018-10-22T23:29:03Z</time>
      </trkpt>
      <trkpt lat="44.09556" lon="5.35573">
        <ele>994</ele>
        <time>2018-10-22T23:30:03Z</time>
      </trkpt>
      <trkpt lat="44.09403" lon="5.35623">
        <ele>996</ele>
        <time>2018-10-22T23:31:03Z</time>
      </trkpt>
      <trkpt lat="44.09342" lon="5.35528">
        <ele>998</ele>
        <time>2018-10-22T23:32:03Z</time>
      </trkpt>
      <trkpt lat="44.09362" lon="5.35317">
        <ele>997</ele>
        <time>2018-10-22T23:33:03Z</time>
      </trkpt>
      <trkpt lat="44.09625" lon="5.35281">
        <ele>1017</ele>
        <time>2018-10-22T23:34:03Z</time>
      </trkpt>
      <trkpt lat="44.09907" lon="5.35263">
        <ele>1032</ele>
        <time>2018-10-22T23:35:03Z</time>
      </trkpt>
      <trkpt lat="44.10229" lon="5.35216">
        <ele>1046</ele>
        <time>2018-10-22T23:36:03Z</time>
      </trkpt>
      <trkpt lat="44.10586" lon="5.35227">
        <ele>1075</ele>
        <time>2018-10-22T23:37:03Z</time>
      </trkpt>
      <trkpt lat="44.10656" lon="5.35281">
        <ele>1078</ele>
        <time>2018-10-22T23:38:03Z</time>
      </trkpt>
      <trkpt lat="44.10783" lon="5.35343">
        <ele>1084</ele>
        <time>2018-10-22T23:39:03Z</time>
      </trkpt>
      <trkpt lat="44.10934" lon="5.3531">
        <ele>1091</ele>
        <time>2018-10-22T23:40:03Z</time>
      </trkpt>
      <trkpt lat="44.10882" lon="5.35224">
        <ele>1088</ele>
        <time>2018-10-22T23:41:03Z</time>
      </trkpt>
      <trkpt lat="44.10864" lon="5.35065">
        <ele>1098</ele>
        <time>2018-10-22T23:42:03Z</time>
      </trkpt>
      <trkpt lat="44.10799" lon="5.34874">
        <ele>1097</ele>
        <time>2018-10-22T23:43:03Z</time>
      </trkpt>
      <trkpt lat="44.10804" lon="5.34704">
        <ele>1098</ele>
        <time>2018-10-22T23:44:03Z</time>
      </trkpt>
      <trkpt lat="44.10708" lon="5.34616">
        <ele>1093</ele>
        <time>2018-10-22T23:45:03Z</time>
      </trkpt>
      <trkpt lat="44.1091" lon="5.3458">
        <ele>1101</ele>
        <time>2018-10-22T23:46:03Z</time>
      </trkpt>
      <trkpt lat="44.1095" lon="5.34494">
        <ele>1104</ele>
        <time>2018-10-22T23:47:03Z</time>
      </trkpt>
      <trkpt lat="44.10913" lon="5.3433">
        <ele>1110</ele>
        <time>2018-10-22T23:48:03Z</time>
      </trkpt>
      <trkpt lat="44.10869" lon="5.34116">
        <ele>1112</ele>
        <time>2018-10-22T23:49:03Z</time>
      </trkpt>
      <trkpt lat="44.11031" lon="5.33912">
        <ele>1115</ele>
        <time>2018-10-22T23:50:03Z</time>
      </trkpt>
      <trkpt lat="44.11188" lon="5.3382">
        <ele>1118</ele>
        <time>2018-10-22T23:51:03Z</time>
      </trkpt>
      <trkpt lat="44.11331" lon="5.3382">
        <ele>1118</ele>
        <time>2018-10-22T23:52:03Z</time>
      </trkpt>
      <trkpt lat="44.11382" lon="5.33963">
        <ele>1121</ele>
        <time>2018-10-22T23:53:03Z</time>
      </trkpt>
      <trkpt lat="44.11412" lon="5.3405">
        <ele>1121</ele>
        <time>2018-10-22T23:54:03Z</time>
      </trkpt>
      <trkpt lat="44.11503" lon="5.33932">
        <ele>1125</ele>
        <time>2018-10-22T23:55:03Z</time>
      </trkpt>
      <trkpt lat="44.11503" lon="5.33845">
        <ele>1124</ele>
        <time>2018-10-22T23:56:03Z</time>
      </trkpt>
      <trkpt lat="44.11547" lon="5.33672">
        <ele>1128</ele>
        <time>2018-10-22T23:57:03Z</time>
      </trkpt>
      <trkpt lat="44.11555" lon="5.33529">
        <ele>1127</ele>
        <time>2018-10-22T23:58:03Z</time>
      </trkpt>
      <trkpt lat="44.11602" lon="5.33391">
        <ele>1132</ele>
        <time>2018-10-22T23:59:03Z</time>
      </trkpt>
      <trkpt lat="44.11584" lon="5.33207">
        <ele>1129</ele>
        <time>2018-10-23T00:00:03Z</time>
      </trkpt>
      <trkpt lat="44.11873" lon="5.32855">
        <ele>1130</ele>
        <time>2018-10-23T00:01:03Z</time>
      </trkpt>
      <trkpt lat="44.12174" lon="5.33029">
        <ele>1133</ele>
        <time>2018-10-23T00:02:03Z</time>
      </trkpt>
      <trkpt lat="44.12265" lon="5.33248">
        <ele>1135</ele>
        <time>2018-10-23T00:03:03Z</time>
      </trkpt>
      <trkpt lat="44.1228" lon="5.33447">
        <ele>1141</ele>
        <time>2018-10-23T00:04:03Z</time>
      </trkpt>
      <trkpt lat="44.12298" lon="5.33544">
        <ele>1143</ele>
        <time>2018-10-23T00:05:03Z</time>
      </trkpt>
      <trkpt lat="44.1239" lon="5.33631">
        <ele>1143</ele>
        <time>2018-10-23T00:06:03Z</time>
      </trkpt>
      <trkpt lat="44.12401" lon="5.33355">
        <ele>1137</ele>
        <time>2018-10-23T00:07:03Z</time>
      </trkpt>
      <trkpt lat="44.12434" lon="5.33136">
        <ele>1137</ele>
        <time>2018-10-23T00:08:03Z</time>
      </trkpt>
      <trkpt lat="44.12383" lon="5.32845">
        <ele>1133</ele>
        <time>2018-10-23T00:09:03Z</time>
      </trkpt>
      <trkpt lat="44.12375" lon="5.32677">
        <ele>1140</ele>
        <time>2018-10-23T00:10:03Z</time>
      </trkpt>
      <trkpt lat="44.12492" lon="5.32621">
        <ele>1142</ele>
        <time>2018-10-23T00:11:03Z</time>
      </trkpt>
      <trkpt lat="44.1258" lon="5.32753">
        <ele>1151</ele>
        <time>2018-10-23T00:12:03Z</time>
      </trkpt>
      <trkpt lat="44.12635" lon="5.32524">
        <ele>1146</ele>
        <time>2018-10-23T00:13:03Z</time>
      </trkpt>
      <trkpt lat="44.128" lon="5.32518">
        <ele>1163</ele>
        <time>2018-10-23T00:14:03Z</time>
      </trkpt>
      <trkpt lat="44.12822" lon="5.32411">
        <ele>1163</ele>
        <time>2018-10-23T00:15:03Z</time>
      </trkpt>
      <trkpt lat="44.13002" lon="5.32095">
        <ele>1172</ele>
        <time>2018-10-23T00:16:03Z</time>
      </trkpt>
      <trkpt lat="44.13247" lon="5.32391">
        <ele>1198</ele>
        <time>2018-10-23T00:17:03Z</time>
      </trkpt>
      <trkpt lat="44.135" lon="5.32503">
        <ele>1196</ele>
        <time>2018-10-23T00:18:03Z</time>
      </trkpt>
      <trkpt lat="44.13639" lon="5.32753">
        <ele>1209</ele>
        <time>2018-10-23T00:19:03Z</time>
      </trkpt>
      <trkpt lat="44.13723" lon="5.32947">
        <ele>1213</ele>
        <time>2018-10-23T00:20:03Z</time>
      </trkpt>
      <trkpt lat="44.13705" lon="5.3308">
        <ele>1230</ele>
        <time>2018-10-23T00:21:03Z</time>
      </trkpt>
      <trkpt lat="44.1372" lon="5.33238">
        <ele>1234</ele>
        <time>2018-10-23T00:22:03Z</time>
      </trkpt>
      <trkpt lat="44.13676" lon="5.33366">
        <ele>1245</ele>
        <time>2018-10-23T00:23:03Z</time>
      </trkpt>
      <trkpt lat="44.13705" lon="5.33534">
        <ele>1251</ele>
        <time>2018-10-23T00:24:03Z</time>
      </trkpt>
      <trkpt lat="44.13785" lon="5.33442">
        <ele>1250</ele>
        <time>2018-10-23T00:25:03Z</time>
      </trkpt>
      <trkpt lat="44.13804" lon="5.3331">
        <ele>1242</ele>
        <time>2018-10-23T00:26:03Z</time>
      </trkpt>
      <trkpt lat="44.13873" lon="5.33213">
        <ele>1247</ele>
        <time>2018-10-23T00:27:03Z</time>
      </trkpt>
      <trkpt lat="44.13833" lon="5.33121">
        <ele>1234</ele>
        <time>2018-10-23T00:28:03Z</time>
      </trkpt>
      <trkpt lat="44.13837" lon="5.32876">
        <ele>1231</ele>
        <time>2018-10-23T00:29:03Z</time>
      </trkpt>
      <trkpt lat="44.13591" lon="5.32381">
        <ele>1205</ele>
        <time>2018-10-23T00:30:03Z</time>
      </trkpt>
      <trkpt lat="44.13361" lon="5.32151">
        <ele>1189</ele>
        <time>2018-10-23T00:31:03Z</time>
      </trkpt>
      <trkpt lat="44.13262" lon="5.31988">
        <ele>1177</ele>
        <time>2018-10-23T00:32:03Z</time>
      </trkpt>
      <trkpt lat="44.13214" lon="5.31809">
        <ele>1163</ele>
        <time>2018-10-23T00:33:03Z</time>
      </trkpt>
      <trkpt lat="44.13448" lon="5.31799">
        <ele>1173</ele>
        <time>2018-10-23T00:34:03Z</time>
      </trkpt>
      <trkpt lat="44.13602" lon="5.31773">
        <ele>1172</ele>
        <time>2018-10-23T00:35:03Z</time>
      </trkpt>
      <trkpt lat="44.13653" lon="5.31796">
        <ele>1174</ele>
        <time>2018-10-23T00:36:03Z</time>
      </trkpt>
      <trkpt lat="44.13679" lon="5.31865">
        <ele>1181</ele>
        <time>2018-10-23T00:37:03Z</time>
      </trkpt>
      <trkpt lat="44.13693" lon="5.3178">
        <ele>1181</ele>
        <time>2018-10-23T00:38:03Z</time>
      </trkpt>
      <trkpt lat="44.13662" lon="5.3172">
        <ele>1177</ele>
        <time>2018-10-23T00:39:03Z</time>
      </trkpt>
      <trkpt lat="44.13588" lon="5.31664">
        <ele>1170</ele>
        <time>2018-10-23T00:40:03Z</time>
      </trkpt>
      <trkpt lat="44.13539" lon="5.31634">
        <ele>1174</ele>
        <time>2018-10-23T00:41:03Z</time>
      </trkpt>
      <trkpt lat="44.13422" lon="5.31591">
        <ele>1167</ele>
        <time>2018-10-23T00:42:03Z</time>
      </trkpt>
      <trkpt lat="44.13228" lon="5.31445">
        <ele>1153</ele>
        <time>2018-10-23T00:43:03Z</time>
      </trkpt>
      <trkpt lat="44.13125" lon="5.31323">
        <ele>1144</ele>
        <time>2018-10-23T00:44:03Z</time>
      </trkpt>
      <trkpt lat="44.1298" lon="5.31216">
        <ele>1137</ele>
        <time>2018-10-23T00:45:03Z</time>
      </trkpt>
      <trkpt lat="44.13222" lon="5.31332">
        <ele>1174</ele>
        <time>2018-10-23T00:46:03Z</time>
      </trkpt>
      <trkpt lat="44.13399" lon="5.31454">
        <ele>1203</ele>
        <time>2018-10-23T00:47:03Z</time>
      </trkpt>
      <trkpt lat="44.13453" lon="5.31093">
        <ele>1205</ele>
        <time>2018-10-23T00:48:03Z</time>
      </trkpt>
      <trkpt lat="44.1349" lon="5.30855">
        <ele>1203</ele>
        <time>2018-10-23T00:49:03Z</time>
      </trkpt>
      <trkpt lat="44.1353" lon="5.3081">
        <ele>1207</ele>
        <time>2018-10-23T00:50:03Z</time>
      </trkpt>
      <trkpt lat="44.13585" lon="5.30842">
        <ele>1217</ele>
        <time>2018-10-23T00:51:03Z</time>
      </trkpt>
      <trkpt lat="44.13679" lon="5.31048">
        <ele>1240</ele>
        <time>2018-10-23T00:52:03Z</time>
      </trkpt>
      <trkpt lat="44.13635" lon="5.31194">
        <ele>1245</ele>
        <time>2018-10-23T00:53:03Z</time>
      </trkpt>
      <trkpt lat="44.13625" lon="5.31347">
        <ele>1258</ele>
        <time>2018-10-23T00:54:03Z</time>
      </trkpt>
      <trkpt lat="44.13916" lon="5.31677">
        <ele>1289</ele>
        <time>2018-10-23T00:55:03Z</time>
      </trkpt>
      <trkpt lat="44.13956" lon="5.31797">
        <ele>1292</ele>
        <time>2018-10-23T00:56:03Z</time>
      </trkpt>
      <trkpt lat="44.14007" lon="5.3192">
        <ele>1302</ele>
        <time>2018-10-23T00:57:03Z</time>
      </trkpt>
      <trkpt lat="44.1406" lon="5.32029">
        <ele>1310</ele>
        <time>2018-10-23T00:58:03Z</time>
      </trkpt>
      <trkpt lat="44.1409" lon="5.32158">
        <ele>1319</ele>
        <time>2018-10-23T00:59:03Z</time>
      </trkpt>
      <trkpt lat="44.14152" lon="5.32126">
        <ele>1326</ele>
        <time>2018-10-23T01:00:03Z</time>
      </trkpt>
      <trkpt lat="44.14274" lon="5.31866">
        <ele>1323</ele>
        <time>2018-10-23T01:01:03Z</time>
      </trkpt>
      <trkpt lat="44.1439" lon="5.31758">
        <ele>1339</ele>
        <time>2018-10-23T01:02:03Z</time>
      </trkpt>
      <trkpt lat="44.14588" lon="5.31768">
        <ele>1361</ele>
        <time>2018-10-23T01:03:03Z</time>
      </trkpt>
      <trkpt lat="44.1454" lon="5.31646">
        <ele>1361</ele>
        <time>2018-10-23T01:04:03Z</time>
      </trkpt>
      <trkpt lat="44.14609" lon="5.31518">
        <ele>1365</ele>
        <time>2018-10-23T01:05:03Z</time>
      </trkpt>
      <trkpt lat="44.14807" lon="5.3162">
        <ele>1385</ele>
        <time>2018-10-23T01:06:03Z</time>
      </trkpt>
      <trkpt lat="44.15206" lon="5.31901">
        <ele>1431</ele>
        <time>2018-10-23T01:07:03Z</time>
      </trkpt>
      <trkpt lat="44.15133" lon="5.31579">
        <ele>1434</ele>
        <time>2018-10-23T01:08:03Z</time>
      </trkpt>
      <trkpt lat="44.15086" lon="5.31437">
        <ele>1444</ele>
        <time>2018-10-23T01:09:03Z</time>
      </trkpt>
      <trkpt lat="44.15111" lon="5.3137">
        <ele>1450</ele>
        <time>2018-10-23T01:10:03Z</time>
      </trkpt>
      <trkpt lat="44.1517" lon="5.31253">
        <ele>1447</ele>
        <time>2018-10-23T01:11:03Z</time>
      </trkpt>
      <trkpt lat="44.15357" lon="5.31391">
        <ele>1466</ele>
        <time>2018-10-23T01:12:03Z</time>
      </trkpt>
      <trkpt lat="44.15316" lon="5.31176">
        <ele>1453</ele>
        <time>2018-10-23T01:13:03Z</time>
      </trkpt>
      <trkpt lat="44.15335" lon="5.31033">
        <ele>1454</ele>
        <time>2018-10-23T01:14:03Z</time>
      </trkpt>
      <trkpt lat="44.15477" lon="5.31059">
        <ele>1466</ele>
        <time>2018-10-23T01:15:03Z</time>
      </trkpt>
      <trkpt lat="44.15584" lon="5.31151">
        <ele>1481</ele>
        <time>2018-10-23T01:16:03Z</time>
      </trkpt>
      <trkpt lat="44.15499" lon="5.30829">
        <ele>1472</ele>
        <time>2018-10-23T01:17:03Z</time>
      </trkpt>
      <trkpt lat="44.15514" lon="5.30712">
        <ele>1477</ele>
        <time>2018-10-23T01:18:03Z</time>
      </trkpt>
      <trkpt lat="44.1569" lon="5.30645">
        <ele>1498</ele>
        <time>2018-10-23T01:19:03Z</time>
      </trkpt>
      <trkpt lat="44.15613" lon="5.30523">
        <ele>1484</ele>
        <time>2018-10-23T01:20:03Z</time>
      </trkpt>
      <trkpt lat="44.15686" lon="5.30018">
        <ele>1503</ele>
        <time>2018-10-23T01:21:03Z</time>
      </trkpt>
      <trkpt lat="44.15803" lon="5.29783">
        <ele>1509</ele>
        <time>2018-10-23T01:22:03Z</time>
      </trkpt>
      <trkpt lat="44.15887" lon="5.29558">
        <ele>1499</ele>
        <time>2018-10-23T01:23:03Z</time>
      </trkpt>
      <trkpt lat="44.16235" lon="5.29778">
        <ele>1536</ele>
        <time>2018-10-23T01:24:03Z</time>
      </trkpt>
      <trkpt lat="44.16191" lon="5.2962">
        <ele>1519</ele>
        <time>2018-10-23T01:25:03Z</time>
      </trkpt>
      <trkpt lat="44.16063" lon="5.29283">
        <ele>1510</ele>
        <time>2018-10-23T01:26:03Z</time>
      </trkpt>
      <trkpt lat="44.15983" lon="5.28997">
        <ele>1512</ele>
        <time>2018-10-23T01:27:03Z</time>
      </trkpt>
      <trkpt lat="44.16103" lon="5.29002">
        <ele>1515</ele>
        <time>2018-10-23T01:28:03Z</time>
      </trkpt>
      <trkpt lat="44.16184" lon="5.29145">
        <ele>1533</ele>
        <time>2018-10-23T01:29:03Z</time>
      </trkpt>
      <trkpt lat="44.16195" lon="5.28946">
        <ele>1519</ele>
        <time>2018-10-23T01:30:03Z</time>
      </trkpt>
      <trkpt lat="44.16173" lon="5.28783">
        <ele>1516</ele>
        <time>2018-10-23T01:31:03Z</time>
      </trkpt>
      <trkpt lat="44.16173" lon="5.28696">
        <ele>1527</ele>
        <time>2018-10-23T01:32:03Z</time>
      </trkpt>
      <trkpt lat="44.16063" lon="5.28528">
        <ele>1516</ele>
        <time>2018-10-23T01:33:03Z</time>
      </trkpt>
      <trkpt lat="44.16144" lon="5.28242">
        <ele>1510</ele>
        <time>2018-10-23T01:34:03Z</time>
      </trkpt>
      <trkpt lat="44.16374" lon="5.2818">
        <ele>1520</ele>
        <time>2018-10-23T01:35:03Z</time>
      </trkpt>
      <trkpt lat="44.16481" lon="5.28094">
        <ele>1532</ele>
        <time>2018-10-23T01:36:03Z</time>
      </trkpt>
      <trkpt lat="44.16301" lon="5.2789">
        <ele>1516</ele>
        <time>2018-10-23T01:37:03Z</time>
      </trkpt>
      <trkpt lat="44.1618" lon="5.27461">
        <ele>1501</ele>
        <time>2018-10-23T01:38:03Z</time>
      </trkpt>
      <trkpt lat="44.16169" lon="5.27262">
        <ele>1489</ele>
        <time>2018-10-23T01:39:03Z</time>
      </trkpt>
      <trkpt lat="44.1625" lon="5.2718">
        <ele>1497</ele>
        <time>2018-10-23T01:40:03Z</time>
      </trkpt>
      <trkpt lat="44.16155" lon="5.26945">
        <ele>1476</ele>
        <time>2018-10-23T01:41:03Z</time>
      </trkpt>
      <trkpt lat="44.16195" lon="5.26808">
        <ele>1474</ele>
        <time>2018-10-23T01:42:03Z</time>
      </trkpt>
      <trkpt lat="44.16316" lon="5.26711">
        <ele>1478</ele>
        <time>2018-10-23T01:43:03Z</time>
      </trkpt>
      <trkpt lat="44.16297" lon="5.2641">
        <ele>1466</ele>
        <time>2018-10-23T01:44:03Z</time>
      </trkpt>
      <trkpt lat="44.16239" lon="5.26328">
        <ele>1456</ele>
        <time>2018-10-23T01:45:03Z</time>
      </trkpt>
      <trkpt lat="44.1629" lon="5.25639">
        <ele>1431</ele>
        <time>2018-10-23T01:46:03Z</time>
      </trkpt>
      <trkpt lat="44.16363" lon="5.25404">
        <ele>1431</ele>
        <time>2018-10-23T01:47:03Z</time>
      </trkpt>
      <trkpt lat="44.16319" lon="5.25266">
        <ele>1417</ele>
        <time>2018-10-23T01:48:03Z</time>
      </trkpt>
      <trkpt lat="44.1636" lon="5.25052">
        <ele>1416</ele>
        <time>2018-10-23T01:49:03Z</time>
      </trkpt>
      <trkpt lat="44.16524" lon="5.24787">
        <ele>1423</ele>
        <time>2018-10-23T01:50:03Z</time>
      </trkpt>
      <trkpt lat="44.16363" lon="5.24618">
        <ele>1396</ele>
        <time>2018-10-23T01:51:03Z</time>
      </trkpt>
      <trkpt lat="44.16352" lon="5.24378">
        <ele>1386</ele>
        <time>2018-10-23T01:52:03Z</time>
      </trkpt>
      <trkpt lat="44.16459" lon="5.24179">
        <ele>1384</ele>
        <time>2018-10-23T01:53:03Z</time>
      </trkpt>
      <trkpt lat="44.16363" lon="5.23975">
        <ele>1353</ele>
        <time>2018-10-23T01:54:03Z</time>
      </trkpt>
      <trkpt lat="44.16371" lon="5.23802">
        <ele>1346</ele>
        <time>2018-10-23T01:55:03Z</time>
      </trkpt>
      <trkpt lat="44.16312" lon="5.23975">
        <ele>1333</ele>
        <time>2018-10-23T01:56:03Z</time>
      </trkpt>
      <trkpt lat="44.16316" lon="5.24108">
        <ele>1335</ele>
        <time>2018-10-23T01:57:03Z</time>
      </trkpt>
      <trkpt lat="44.16199" lon="5.24159">
        <ele>1307</ele>
        <time>2018-10-23T01:58:03Z</time>
      </trkpt>
      <trkpt lat="44.1614" lon="5.24271">
        <ele>1303</ele>
        <time>2018-10-23T01:59:03Z</time>
      </trkpt>
      <trkpt lat="44.16221" lon="5.24057">
        <ele>1299</ele>
        <time>2018-10-23T02:00:03Z</time>
      </trkpt>
      <trkpt lat="44.1618" lon="5.23659">
        <ele>1264</ele>
        <time>2018-10-23T02:01:03Z</time>
      </trkpt>
      <trkpt lat="44.16122" lon="5.23776">
        <ele>1249</ele>
        <time>2018-10-23T02:02:03Z</time>
      </trkpt>
      <trkpt lat="44.16122" lon="5.23603">
        <ele>1236</ele>
        <time>2018-10-23T02:03:03Z</time>
      </trkpt>
      <trkpt lat="44.1629" lon="5.2346">
        <ele>1243</ele>
        <time>2018-10-23T02:04:03Z</time>
      </trkpt>
      <trkpt lat="44.16129" lon="5.23154">
        <ele>1203</ele>
        <time>2018-10-23T02:05:03Z</time>
      </trkpt>
      <trkpt lat="44.16103" lon="5.2297">
        <ele>1188</ele>
        <time>2018-10-23T02:06:03Z</time>
      </trkpt>
      <trkpt lat="44.16301" lon="5.22694">
        <ele>1180</ele>
        <time>2018-10-23T02:07:03Z</time>
      </trkpt>
      <trkpt lat="44.16213" lon="5.22429">
        <ele>1144</ele>
        <time>2018-10-23T02:08:03Z</time>
      </trkpt>
      <trkpt lat="44.16268" lon="5.22184">
        <ele>1142</ele>
        <time>2018-10-23T02:09:03Z</time>
      </trkpt>
      <trkpt lat="44.16213" lon="5.21908">
        <ele>1115</ele>
        <time>2018-10-23T02:10:03Z</time>
      </trkpt>
      <trkpt lat="44.16239" lon="5.21429">
        <ele>1084</ele>
        <time>2018-10-23T02:11:03Z</time>
      </trkpt>
      <trkpt lat="44.16371" lon="5.21163">
        <ele>1061</ele>
        <time>2018-10-23T02:12:03Z</time>
      </trkpt>
      <trkpt lat="44.1629" lon="5.21209">
        <ele>1053</ele>
        <time>2018-10-23T02:13:03Z</time>
      </trkpt>
      <trkpt lat="44.16085" lon="5.21275">
        <ele>1023</ele>
        <time>2018-10-23T02:14:03Z</time>
      </trkpt>
      <trkpt lat="44.16041" lon="5.21602">
        <ele>1012</ele>
        <time>2018-10-23T02:15:03Z</time>
      </trkpt>
      <trkpt lat="44.15825" lon="5.21903">
        <ele>974</ele>
        <time>2018-10-23T02:16:03Z</time>
      </trkpt>
      <trkpt lat="44.15887" lon="5.21587">
        <ele>951</ele>
        <time>2018-10-23T02:17:03Z</time>
      </trkpt>
      <trkpt lat="44.15825" lon="5.21143">
        <ele>915</ele>
        <time>2018-10-23T02:18:03Z</time>
      </trkpt>
      <trkpt lat="44.15785" lon="5.20785">
        <ele>886</ele>
        <time>2018-10-23T02:19:03Z</time>
      </trkpt>
      <trkpt lat="44.15719" lon="5.20969">
        <ele>875</ele>
        <time>2018-10-23T02:20:03Z</time>
      </trkpt>
      <trkpt lat="44.15693" lon="5.21326">
        <ele>872</ele>
        <time>2018-10-23T02:21:03Z</time>
      </trkpt>
      <trkpt lat="44.15518" lon="5.21184">
        <ele>832</ele>
        <time>2018-10-23T02:22:03Z</time>
      </trkpt>
      <trkpt lat="44.15415" lon="5.21474">
        <ele>826</ele>
        <time>2018-10-23T02:23:03Z</time>
      </trkpt>
      <trkpt lat="44.1521" lon="5.21337">
        <ele>792</ele>
        <time>2018-10-23T02:24:03Z</time>
      </trkpt>
      <trkpt lat="44.15045" lon="5.21454">
        <ele>780</ele>
        <time>2018-10-23T02:25:03Z</time>
      </trkpt>
      <trkpt lat="44.14888" lon="5.21474">
        <ele>758</ele>
        <time>2018-10-23T02:26:03Z</time>
      </trkpt>
      <trkpt lat="44.14826" lon="5.21546">
        <ele>745</ele>
        <time>2018-10-23T02:27:03Z</time>
      </trkpt>
      <trkpt lat="44.14822" lon="5.2126">
        <ele>722</ele>
        <time>2018-10-23T02:28:03Z</time>
      </trkpt>
      <trkpt lat="44.1465" lon="5.21566">
        <ele>700</ele>
        <time>2018-10-23T02:29:03Z</time>
      </trkpt>
      <trkpt lat="44.14617" lon="5.21377">
        <ele>686</ele>
        <time>2018-10-23T02:30:03Z</time>
      </trkpt>
      <trkpt lat="44.14661" lon="5.21286">
        <ele>688</ele>
        <time>2018-10-23T02:31:03Z</time>
      </trkpt>
      <trkpt lat="44.1462" lon="5.21122">
        <ele>670</ele>
        <time>2018-10-23T02:32:03Z</time>
      </trkpt>
      <trkpt lat="44.14683" lon="5.20882">
        <ele>650</ele>
        <time>2018-10-23T02:33:03Z</time>
      </trkpt>
      <trkpt lat="44.14584" lon="5.20974">
        <ele>644</ele>
        <time>2018-10-23T02:34:03Z</time>
      </trkpt>
      <trkpt lat="44.14617" lon="5.20734">
        <ele>622</ele>
        <time>2018-10-23T02:35:03Z</time>
      </trkpt>
      <trkpt lat="44.1458" lon="5.20734">
        <ele>619</ele>
        <time>2018-10-23T02:36:03Z</time>
      </trkpt>
      <trkpt lat="44.145" lon="5.20837">
        <ele>610</ele>
        <time>2018-10-23T02:37:03Z</time>
      </trkpt>
      <trkpt lat="44.14379" lon="5.20898">
        <ele>596</ele>
        <time>2018-10-23T02:38:03Z</time>
      </trkpt>
      <trkpt lat="44.14317" lon="5.20928">
        <ele>588</ele>
        <time>2018-10-23T02:39:03Z</time>
      </trkpt>
      <trkpt lat="44.14273" lon="5.20995">
        <ele>586</ele>
        <time>2018-10-23T02:40:03Z</time>
      </trkpt>
      <trkpt lat="44.1421" lon="5.20969">
        <ele>571</ele>
        <time>2018-10-23T02:41:03Z</time>
      </trkpt>
      <trkpt lat="44.14232" lon="5.20826">
        <ele>564</ele>
        <time>2018-10-23T02:42:03Z</time>
      </trkpt>
      <trkpt lat="44.14137" lon="5.20903">
        <ele>549</ele>
        <time>2018-10-23T02:43:03Z</time>
      </trkpt>
      <trkpt lat="44.1417" lon="5.20571">
        <ele>531</ele>
        <time>2018-10-23T02:44:03Z</time>
      </trkpt>
      <trkpt lat="44.1402" lon="5.20668">
        <ele>512</ele>
        <time>2018-10-23T02:45:03Z</time>
      </trkpt>
      <trkpt lat="44.14027" lon="5.20387">
        <ele>490</ele>
        <time>2018-10-23T02:46:03Z</time>
      </trkpt>
      <trkpt lat="44.1406" lon="5.20244">
        <ele>480</ele>
        <time>2018-10-23T02:47:03Z</time>
      </trkpt>
      <trkpt lat="44.13991" lon="5.20066">
        <ele>466</ele>
        <time>2018-10-23T02:48:03Z</time>
      </trkpt>
      <trkpt lat="44.14115" lon="5.2003">
        <ele>470</ele>
        <time>2018-10-23T02:49:03Z</time>
      </trkpt>
      <trkpt lat="44.14024" lon="5.1979">
        <ele>456</ele>
        <time>2018-10-23T02:50:03Z</time>
      </trkpt>
      <trkpt lat="44.14038" lon="5.19668">
        <ele>454</ele>
        <time>2018-10-23T02:51:03Z</time>
      </trkpt>
      <trkpt lat="44.1421" lon="5.19316">
        <ele>464</ele>
        <time>2018-10-23T02:52:03Z</time>
      </trkpt>
      <trkpt lat="44.14203" lon="5.19244">
        <ele>461</ele>
        <time>2018-10-23T02:53:03Z</time>
      </trkpt>
      <trkpt lat="44.14218" lon="5.19137">
        <ele>452</ele>
        <time>2018-10-23T02:54:03Z</time>
      </trkpt>
      <trkpt lat="44.14108" lon="5.19157">
        <ele>441</ele>
        <time>2018-10-23T02:55:03Z</time>
      </trkpt>
      <trkpt lat="44.14302" lon="5.19004">
        <ele>438</ele>
        <time>2018-10-23T02:56:03Z</time>
      </trkpt>
      <trkpt lat="44.14188" lon="5.18882">
        <ele>420</ele>
        <time>2018-10-23T02:57:03Z</time>
      </trkpt>
      <trkpt lat="44.14273" lon="5.18509">
        <ele>423</ele>
        <time>2018-10-23T02:58:03Z</time>
      </trkpt>
      <trkpt lat="44.14287" lon="5.18356">
        <ele>421</ele>
        <time>2018-10-23T02:59:03Z</time>
      </trkpt>
      <trkpt lat="44.14097" lon="5.18218">
        <ele>397</ele>
        <time>2018-10-23T03:00:03Z</time>
      </trkpt>
      <trkpt lat="44.14013" lon="5.18183">
        <ele>393</ele>
        <time>2018-10-23T03:01:03Z</time>
      </trkpt>
      <trkpt lat="44.13921" lon="5.17943">
        <ele>383</ele>
        <time>2018-10-23T03:02:03Z</time>
      </trkpt>
      <trkpt lat="44.13665" lon="5.17631">
        <ele>375</ele>
        <time>2018-10-23T03:03:03Z</time>
      </trkpt>
      <trkpt lat="44.13694" lon="5.1754">
        <ele>378</ele>
        <time>2018-10-23T03:04:03Z</time>
      </trkpt>
      <trkpt lat="44.13899" lon="5.17325">
        <ele>391</ele>
        <time>2018-10-23T03:05:03Z</time>
      </trkpt>
      <trkpt lat="44.13932" lon="5.17167">
        <ele>390</ele>
        <time>2018-10-23T03:06:03Z</time>
      </trkpt>
      <trkpt lat="44.14053" lon="5.17101">
        <ele>381</ele>
        <time>2018-10-23T03:07:03Z</time>
      </trkpt>
      <trkpt lat="44.14056" lon="5.16881">
        <ele>371</ele>
        <time>2018-10-23T03:08:03Z</time>
      </trkpt>
      <trkpt lat="44.14082" lon="5.1658">
        <ele>356</ele>
        <time>2018-10-23T03:09:03Z</time>
      </trkpt>
      <trkpt lat="44.13914" lon="5.16488">
        <ele>360</ele>
        <time>2018-10-23T03:10:03Z</time>
      </trkpt>
      <trkpt lat="44.14071" lon="5.16279">
        <ele>374</ele>
        <time>2018-10-23T03:11:03Z</time>
      </trkpt>
      <trkpt lat="44.14133" lon="5.15952">
        <ele>354</ele>
        <time>2018-10-23T03:12:03Z</time>
      </trkpt>
      <trkpt lat="44.14122" lon="5.15799">
        <ele>353</ele>
        <time>2018-10-23T03:13:03Z</time>
      </trkpt>
      <trkpt lat="44.14181" lon="5.15641">
        <ele>366</ele>
        <time>2018-10-23T03:14:03Z</time>
      </trkpt>
      <trkpt lat="44.14078" lon="5.15478">
        <ele>377</ele>
        <time>2018-10-23T03:15:03Z</time>
      </trkpt>
      <trkpt lat="44.14078" lon="5.15269">
        <ele>388</ele>
        <time>2018-10-23T03:16:03Z</time>
      </trkpt>
      <trkpt lat="44.13892" lon="5.15008">
        <ele>403</ele>
        <time>2018-10-23T03:17:03Z</time>
      </trkpt>
      <trkpt lat="44.13731" lon="5.14819">
        <ele>413</ele>
        <time>2018-10-23T03:18:03Z</time>
      </trkpt>
      <trkpt lat="44.13679" lon="5.14697">
        <ele>422</ele>
        <time>2018-10-23T03:19:03Z</time>
      </trkpt>
      <trkpt lat="44.13489" lon="5.14631">
        <ele>422</ele>
        <time>2018-10-23T03:20:03Z</time>
      </trkpt>
      <trkpt lat="44.13503" lon="5.14544">
        <ele>432</ele>
        <time>2018-10-23T03:21:03Z</time>
      </trkpt>
      <trkpt lat="44.13763" lon="5.14406">
        <ele>431</ele>
        <time>2018-10-23T03:22:03Z</time>
      </trkpt>
      <trkpt lat="44.13837" lon="5.1413">
        <ele>424</ele>
        <time>2018-10-23T03:23:03Z</time>
      </trkpt>
      <trkpt lat="44.14071" lon="5.14207">
        <ele>422</ele>
        <time>2018-10-23T03:24:03Z</time>
      </trkpt>
      <trkpt lat="44.14207" lon="5.14182">
        <ele>420</ele>
        <time>2018-10-23T03:25:03Z</time>
      </trkpt>
      <trkpt lat="44.14309" lon="5.14115">
        <ele>428</ele>
        <time>2018-10-23T03:26:03Z</time>
      </trkpt>
      <trkpt lat="44.14251" lon="5.14069">
        <ele>415</ele>
        <time>2018-10-23T03:27:03Z</time>
      </trkpt>
      <trkpt lat="44.14284" lon="5.13962">
        <ele>428</ele>
        <time>2018-10-23T03:28:03Z</time>
      </trkpt>
      <trkpt lat="44.14225" lon="5.13829">
        <ele>437</ele>
        <time>2018-10-23T03:29:03Z</time>
      </trkpt>
      <trkpt lat="44.14148" lon="5.1385">
        <ele>426</ele>
        <time>2018-10-23T03:30:03Z</time>
      </trkpt>
      <trkpt lat="44.14218" lon="5.13625">
        <ele>440</ele>
        <time>2018-10-23T03:31:03Z</time>
      </trkpt>
      <trkpt lat="44.14115" lon="5.13559">
        <ele>435</ele>
        <time>2018-10-23T03:32:03Z</time>
      </trkpt>
      <trkpt lat="44.14071" lon="5.13457">
        <ele>437</ele>
        <time>2018-10-23T03:33:03Z</time>
      </trkpt>
      <trkpt lat="44.14089" lon="5.13339">
        <ele>447</ele>
        <time>2018-10-23T03:34:03Z</time>
      </trkpt>
      <trkpt lat="44.14064" lon="5.13263">
        <ele>452</ele>
        <time>2018-10-23T03:35:03Z</time>
      </trkpt>
      <trkpt lat="44.14137" lon="5.12926">
        <ele>454</ele>
        <time>2018-10-23T03:36:03Z</time>
      </trkpt>
      <trkpt lat="44.14067" lon="5.12625">
        <ele>417</ele>
        <time>2018-10-23T03:37:03Z</time>
      </trkpt>
      <trkpt lat="44.1404" lon="5.12532">
        <ele>398</ele>
        <time>2018-10-23T03:38:03Z</time>
      </trkpt>
      <trkpt lat="44.14135" lon="5.12253">
        <ele>337</ele>
        <time>2018-10-23T03:39:03Z</time>
      </trkpt>
      <trkpt lat="44.14141" lon="5.12154">
        <ele>336</ele>
        <time>2018-10-23T03:40:03Z</time>
      </trkpt>
      <trkpt lat="44.14166" lon="5.12094">
        <ele>345</ele>
        <time>2018-10-23T03:41:03Z</time>
      </trkpt>
      <trkpt lat="44.1436" lon="5.12188">
        <ele>358</ele>
        <time>2018-10-23T03:42:03Z</time>
      </trkpt>
      <trkpt lat="44.14277" lon="5.12059">
        <ele>367</ele>
        <time>2018-10-23T03:43:03Z</time>
      </trkpt>
      <trkpt lat="44.14298" lon="5.11999">
        <ele>373</ele>
        <time>2018-10-23T03:44:03Z</time>
      </trkpt>
      <trkpt lat="44.14575" lon="5.12025">
        <ele>400</ele>
        <time>2018-10-23T03:45:03Z</time>
      </trkpt>
      <trkpt lat="44.1476" lon="5.12124">
        <ele>420</ele>
        <time>2018-10-23T03:46:03Z</time>
      </trkpt>
      <trkpt lat="44.14939" lon="5.12253">
        <ele>416</ele>
        <time>2018-10-23T03:47:03Z</time>
      </trkpt>
      <trkpt lat="44.14973" lon="5.12459">
        <ele>408</ele>
        <time>2018-10-23T03:48:03Z</time>
      </trkpt>
      <trkpt lat="44.15114" lon="5.12549">
        <ele>407</ele>
        <time>2018-10-23T03:49:03Z</time>
      </trkpt>
      <trkpt lat="44.15204" lon="5.12652">
        <ele>407</ele>
        <time>2018-10-23T03:50:03Z</time>
      </trkpt>
      <trkpt lat="44.15308" lon="5.12604">
        <ele>396</ele>
        <time>2018-10-23T03:51:03Z</time>
      </trkpt>
      <trkpt lat="44.1541" lon="5.12969">
        <ele>382</ele>
        <time>2018-10-23T03:52:03Z</time>
      </trkpt>
      <trkpt lat="44.15055" lon="5.13393">
        <ele>387</ele>
        <time>2018-10-23T03:53:03Z</time>
      </trkpt>
      <trkpt lat="44.15151" lon="5.13642">
        <ele>391</ele>
        <time>2018-10-23T03:54:03Z</time>
      </trkpt>
      <trkpt lat="44.15177" lon="5.13909">
        <ele>404</ele>
        <time>2018-10-23T03:55:03Z</time>
      </trkpt>
      <trkpt lat="44.15621" lon="5.14116">
        <ele>425</ele>
        <time>2018-10-23T03:56:03Z</time>
      </trkpt>
      <trkpt lat="44.15678" lon="5.14025">
        <ele>433</ele>
        <time>2018-10-23T03:57:03Z</time>
      </trkpt>
      <trkpt lat="44.15634" lon="5.13946">
        <ele>430</ele>
        <time>2018-10-23T03:58:03Z</time>
      </trkpt>
      <trkpt lat="44.15678" lon="5.13824">
        <ele>444</ele>
        <time>2018-10-23T03:59:03Z</time>
      </trkpt>
      <trkpt lat="44.15756" lon="5.14018">
        <ele>459</ele>
        <time>2018-10-23T04:00:03Z</time>
      </trkpt>
      <trkpt lat="44.16" lon="5.14188">
        <ele>487</ele>
        <time>2018-10-23T04:01:03Z</time>
      </trkpt>
      <trkpt lat="44.16133" lon="5.14136">
        <ele>485</ele>
        <time>2018-10-23T04:02:03Z</time>
      </trkpt>
      <trkpt lat="44.16334" lon="5.14115">
        <ele>454</ele>
        <time>2018-10-23T04:03:03Z</time>
      </trkpt>
      <trkpt lat="44.16484" lon="5.14294">
        <ele>446</ele>
        <time>2018-10-23T04:04:03Z</time>
      </trkpt>
      <trkpt lat="44.16492" lon="5.14447">
        <ele>444</ele>
        <time>2018-10-23T04:05:03Z</time>
      </trkpt>
      <trkpt lat="44.16557" lon="5.14544">
        <ele>426</ele>
        <time>2018-10-23T04:06:03Z</time>
      </trkpt>
      <trkpt lat="44.16546" lon="5.14722">
        <ele>434</ele>
        <time>2018-10-23T04:07:03Z</time>
      </trkpt>
      <trkpt lat="44.16642" lon="5.14814">
        <ele>411</ele>
        <time>2018-10-23T04:08:03Z</time>
      </trkpt>
      <trkpt lat="44.16773" lon="5.14906">
        <ele>410</ele>
        <time>2018-10-23T04:09:03Z</time>
      </trkpt>
      <trkpt lat="44.16806" lon="5.14993">
        <ele>420</ele>
        <time>2018-10-23T04:10:03Z</time>
      </trkpt>
      <trkpt lat="44.16865" lon="5.14855">
        <ele>426</ele>
        <time>2018-10-23T04:11:03Z</time>
      </trkpt>
      <trkpt lat="44.1688" lon="5.15018">
        <ele>433</ele>
        <time>2018-10-23T04:12:03Z</time>
      </trkpt>
      <trkpt lat="44.16858" lon="5.15121">
        <ele>439</ele>
        <time>2018-10-23T04:13:03Z</time>
      </trkpt>
      <trkpt lat="44.1688" lon="5.15243">
        <ele>458</ele>
        <time>2018-10-23T04:14:03Z</time>
      </trkpt>
      <trkpt lat="44.16989" lon="5.15345">
        <ele>472</ele>
        <time>2018-10-23T04:15:03Z</time>
      </trkpt>
      <trkpt lat="44.17118" lon="5.15462">
        <ele>462</ele>
        <time>2018-10-23T04:16:03Z</time>
      </trkpt>
      <trkpt lat="44.17264" lon="5.1561">
        <ele>434</ele>
        <time>2018-10-23T04:17:03Z</time>
      </trkpt>
      <trkpt lat="44.17432" lon="5.15534">
        <ele>424</ele>
        <time>2018-10-23T04:18:03Z</time>
      </trkpt>
      <trkpt lat="44.17575" lon="5.15166">
        <ele>392</ele>
        <time>2018-10-23T04:19:03Z</time>
      </trkpt>
      <trkpt lat="44.17564" lon="5.14957">
        <ele>390</ele>
        <time>2018-10-23T04:20:03Z</time>
      </trkpt>
      <trkpt lat="44.17678" lon="5.14702">
        <ele>374</ele>
        <time>2018-10-23T04:21:03Z</time>
      </trkpt>
      <trkpt lat="44.17736" lon="5.1487">
        <ele>378</ele>
        <time>2018-10-23T04:22:03Z</time>
      </trkpt>
      <trkpt lat="44.17736" lon="5.15049">
        <ele>387</ele>
        <time>2018-10-23T04:23:03Z</time>
      </trkpt>
      <trkpt lat="44.1789" lon="5.15228">
        <ele>394</ele>
        <time>2018-10-23T04:24:03Z</time>
      </trkpt>
      <trkpt lat="44.17981" lon="5.15422">
        <ele>400</ele>
        <time>2018-10-23T04:25:03Z</time>
      </trkpt>
      <trkpt lat="44.18194" lon="5.15355">
        <ele>391</ele>
        <time>2018-10-23T04:26:03Z</time>
      </trkpt>
      <trkpt lat="44.18208" lon="5.15289">
        <ele>388</ele>
        <time>2018-10-23T04:27:03Z</time>
      </trkpt>
      <trkpt lat="44.18377" lon="5.1509">
        <ele>382</ele>
        <time>2018-10-23T04:28:03Z</time>
      </trkpt>
      <trkpt lat="44.18549" lon="5.14952">
        <ele>369</ele>
        <time>2018-10-23T04:29:03Z</time>
      </trkpt>
      <trkpt lat="44.18622" lon="5.15269">
        <ele>373</ele>
        <time>2018-10-23T04:30:03Z</time>
      </trkpt>
      <trkpt lat="44.18721" lon="5.15549">
        <ele>374</ele>
        <time>2018-10-23T04:31:03Z</time>
      </trkpt>
      <trkpt lat="44.18746" lon="5.15728">
        <ele>368</ele>
        <time>2018-10-23T04:32:03Z</time>
      </trkpt>
      <trkpt lat="44.18787" lon="5.15789">
        <ele>363</ele>
        <time>2018-10-23T04:33:03Z</time>
      </trkpt>
      <trkpt lat="44.18916" lon="5.15789">
        <ele>356</ele>
        <time>2018-10-23T04:34:03Z</time>
      </trkpt>
      <trkpt lat="44.19033" lon="5.15832">
        <ele>358</ele>
        <time>2018-10-23T04:35:03Z</time>
      </trkpt>
      <trkpt lat="44.19116" lon="5.15321">
        <ele>345</ele>
        <time>2018-10-23T04:36:03Z</time>
      </trkpt>
      <trkpt lat="44.19177" lon="5.1493">
        <ele>334</ele>
        <time>2018-10-23T04:37:03Z</time>
      </trkpt>
      <trkpt lat="44.19141" lon="5.14823">
        <ele>333</ele>
        <time>2018-10-23T04:38:03Z</time>
      </trkpt>
      <trkpt lat="44.19193" lon="5.1472">
        <ele>330</ele>
        <time>2018-10-23T04:39:03Z</time>
      </trkpt>
      <trkpt lat="44.19282" lon="5.14308">
        <ele>330</ele>
        <time>2018-10-23T04:40:03Z</time>
      </trkpt>
      <trkpt lat="44.19377" lon="5.14471">
        <ele>339</ele>
        <time>2018-10-23T04:41:03Z</time>
      </trkpt>
      <trkpt lat="44.19398" lon="5.14667">
        <ele>348</ele>
        <time>2018-10-23T04:42:03Z</time>
      </trkpt>
      <trkpt lat="44.19372" lon="5.14934">
        <ele>353</ele>
        <time>2018-10-23T04:43:03Z</time>
      </trkpt>
      <trkpt lat="44.19398" lon="5.15049">
        <ele>362</ele>
        <time>2018-10-23T04:44:03Z</time>
      </trkpt>
      <trkpt lat="44.19791" lon="5.15251">
        <ele>369</ele>
        <time>2018-10-23T04:45:03Z</time>
      </trkpt>
      <trkpt lat="44.19812" lon="5.15439">
        <ele>379</ele>
        <time>2018-10-23T04:46:03Z</time>
      </trkpt>
      <trkpt lat="44.19936" lon="5.15727">
        <ele>396</ele>
        <time>2018-10-23T04:47:03Z</time>
      </trkpt>
      <trkpt lat="44.20205" lon="5.15792">
        <ele>395</ele>
        <time>2018-10-23T04:48:03Z</time>
      </trkpt>
      <trkpt lat="44.20469" lon="5.16002">
        <ele>414</ele>
        <time>2018-10-23T04:49:03Z</time>
      </trkpt>
      <trkpt lat="44.20516" lon="5.16204">
        <ele>427</ele>
        <time>2018-10-23T04:50:03Z</time>
      </trkpt>
      <trkpt lat="44.20526" lon="5.16601">
        <ele>448</ele>
        <time>2018-10-23T04:51:03Z</time>
      </trkpt>
      <trkpt lat="44.20409" lon="5.1678">
        <ele>467</ele>
        <time>2018-10-23T04:52:03Z</time>
      </trkpt>
      <trkpt lat="44.20191" lon="5.16865">
        <ele>498</ele>
        <time>2018-10-23T04:53:03Z</time>
      </trkpt>
      <trkpt lat="44.20057" lon="5.16998">
        <ele>515</ele>
        <time>2018-10-23T04:54:03Z</time>
      </trkpt>
      <trkpt lat="44.19865" lon="5.17053">
        <ele>534</ele>
        <time>2018-10-23T04:55:03Z</time>
      </trkpt>
      <trkpt lat="44.19752" lon="5.17326">
        <ele>542</ele>
        <time>2018-10-23T04:56:03Z</time>
      </trkpt>
      <trkpt lat="44.19621" lon="5.17605">
        <ele>538</ele>
        <time>2018-10-23T04:57:03Z</time>
      </trkpt>
      <trkpt lat="44.19678" lon="5.17745">
        <ele>545</ele>
        <time>2018-10-23T04:58:03Z</time>
      </trkpt>
      <trkpt lat="44.19756" lon="5.18212">
        <ele>564</ele>
        <time>2018-10-23T04:59:03Z</time>
      </trkpt>
      <trkpt lat="44.19756" lon="5.18406">
        <ele>576</ele>
        <time>2018-10-23T05:00:03Z</time>
      </trkpt>
      <trkpt lat="44.19865" lon="5.18516">
        <ele>566</ele>
        <time>2018-10-23T05:01:03Z</time>
      </trkpt>
      <trkpt lat="44.19856" lon="5.18631">
        <ele>590</ele>
        <time>2018-10-23T05:02:03Z</time>
      </trkpt>
      <trkpt lat="44.19961" lon="5.18728">
        <ele>577</ele>
        <time>2018-10-23T05:03:03Z</time>
      </trkpt>
      <trkpt lat="44.19952" lon="5.18892">
        <ele>600</ele>
        <time>2018-10-23T05:04:03Z</time>
      </trkpt>
      <trkpt lat="44.20091" lon="5.19025">
        <ele>590</ele>
        <time>2018-10-23T05:05:03Z</time>
      </trkpt>
      <trkpt lat="44.20026" lon="5.19256">
        <ele>623</ele>
        <time>2018-10-23T05:06:03Z</time>
      </trkpt>
      <trkpt lat="44.202" lon="5.19317">
        <ele>604</ele>
        <time>2018-10-23T05:07:03Z</time>
      </trkpt>
      <trkpt lat="44.20218" lon="5.19462">
        <ele>610</ele>
        <time>2018-10-23T05:08:03Z</time>
      </trkpt>
      <trkpt lat="44.20104" lon="5.19596">
        <ele>650</ele>
        <time>2018-10-23T05:09:03Z</time>
      </trkpt>
      <trkpt lat="44.20135" lon="5.19693">
        <ele>644</ele>
        <time>2018-10-23T05:10:03Z</time>
      </trkpt>
      <trkpt lat="44.20244" lon="5.1979">
        <ele>629</ele>
        <time>2018-10-23T05:11:03Z</time>
      </trkpt>
      <trkpt lat="44.20183" lon="5.20027">
        <ele>670</ele>
        <time>2018-10-23T05:12:03Z</time>
      </trkpt>
      <trkpt lat="44.20248" lon="5.20124">
        <ele>664</ele>
        <time>2018-10-23T05:13:03Z</time>
      </trkpt>
      <trkpt lat="44.20383" lon="5.20142">
        <ele>660</ele>
        <time>2018-10-23T05:14:03Z</time>
      </trkpt>
      <trkpt lat="44.20392" lon="5.20361">
        <ele>686</ele>
        <time>2018-10-23T05:15:03Z</time>
      </trkpt>
      <trkpt lat="44.20418" lon="5.20603">
        <ele>685</ele>
        <time>2018-10-23T05:16:03Z</time>
      </trkpt>
      <trkpt lat="44.20439" lon="5.20786">
        <ele>697</ele>
        <time>2018-10-23T05:17:03Z</time>
      </trkpt>
      <trkpt lat="44.20461" lon="5.20974">
        <ele>695</ele>
        <time>2018-10-23T05:18:03Z</time>
      </trkpt>
      <trkpt lat="44.20413" lon="5.21119">
        <ele>714</ele>
        <time>2018-10-23T05:19:03Z</time>
      </trkpt>
      <trkpt lat="44.20535" lon="5.21259">
        <ele>700</ele>
        <time>2018-10-23T05:20:03Z</time>
      </trkpt>
      <trkpt lat="44.20466" lon="5.21447">
        <ele>720</ele>
        <time>2018-10-23T05:21:03Z</time>
      </trkpt>
      <trkpt lat="44.20531" lon="5.21641">
        <ele>710</ele>
        <time>2018-10-23T05:22:03Z</time>
      </trkpt>
      <trkpt lat="44.20496" lon="5.21848">
        <ele>722</ele>
        <time>2018-10-23T05:23:03Z</time>
      </trkpt>
      <trkpt lat="44.20566" lon="5.22054">
        <ele>711</ele>
        <time>2018-10-23T05:24:03Z</time>
      </trkpt>
      <trkpt lat="44.20418" lon="5.22175">
        <ele>750</ele>
        <time>2018-10-23T05:25:03Z</time>
      </trkpt>
      <trkpt lat="44.20479" lon="5.22321">
        <ele>738</ele>
        <time>2018-10-23T05:26:03Z</time>
      </trkpt>
      <trkpt lat="44.20422" lon="5.22521">
        <ele>772</ele>
        <time>2018-10-23T05:27:03Z</time>
      </trkpt>
      <trkpt lat="44.20439" lon="5.22649">
        <ele>763</ele>
        <time>2018-10-23T05:28:03Z</time>
      </trkpt>
      <trkpt lat="44.20309" lon="5.22904">
        <ele>793</ele>
        <time>2018-10-23T05:29:03Z</time>
      </trkpt>
      <trkpt lat="44.20165" lon="5.22995">
        <ele>820</ele>
        <time>2018-10-23T05:30:03Z</time>
      </trkpt>
      <trkpt lat="44.20074" lon="5.23256">
        <ele>847</ele>
        <time>2018-10-23T05:31:03Z</time>
      </trkpt>
      <trkpt lat="44.20091" lon="5.23401">
        <ele>855</ele>
        <time>2018-10-23T05:32:03Z</time>
      </trkpt>
      <trkpt lat="44.20222" lon="5.23638">
        <ele>862</ele>
        <time>2018-10-23T05:33:03Z</time>
      </trkpt>
      <trkpt lat="44.202" lon="5.23784">
        <ele>889</ele>
        <time>2018-10-23T05:34:03Z</time>
      </trkpt>
      <trkpt lat="44.20348" lon="5.24033">
        <ele>902</ele>
        <time>2018-10-23T05:35:03Z</time>
      </trkpt>
      <trkpt lat="44.2037" lon="5.24233">
        <ele>924</ele>
        <time>2018-10-23T05:36:03Z</time>
      </trkpt>
      <trkpt lat="44.20274" lon="5.24451">
        <ele>924</ele>
        <time>2018-10-23T05:37:03Z</time>
      </trkpt>
      <trkpt lat="44.1993" lon="5.24306">
        <ele>964</ele>
        <time>2018-10-23T05:38:03Z</time>
      </trkpt>
      <trkpt lat="44.19708" lon="5.24239">
        <ele>999</ele>
        <time>2018-10-23T05:39:03Z</time>
      </trkpt>
      <trkpt lat="44.19652" lon="5.24287">
        <ele>994</ele>
        <time>2018-10-23T05:40:03Z</time>
      </trkpt>
      <trkpt lat="44.19809" lon="5.24755">
        <ele>923</ele>
        <time>2018-10-23T05:41:03Z</time>
      </trkpt>
      <trkpt lat="44.19787" lon="5.24876">
        <ele>924</ele>
        <time>2018-10-23T05:42:03Z</time>
      </trkpt>
      <trkpt lat="44.19869" lon="5.2518">
        <ele>880</ele>
        <time>2018-10-23T05:43:03Z</time>
      </trkpt>
      <trkpt lat="44.19891" lon="5.2541">
        <ele>849</ele>
        <time>2018-10-23T05:44:03Z</time>
      </trkpt>
      <trkpt lat="44.19865" lon="5.25544">
        <ele>849</ele>
        <time>2018-10-23T05:45:03Z</time>
      </trkpt>
      <trkpt lat="44.19878" lon="5.25689">
        <ele>839</ele>
        <time>2018-10-23T05:46:03Z</time>
      </trkpt>
      <trkpt lat="44.1997" lon="5.25817">
        <ele>816</ele>
        <time>2018-10-23T05:47:03Z</time>
      </trkpt>
      <trkpt lat="44.19939" lon="5.25598">
        <ele>801</ele>
        <time>2018-10-23T05:48:03Z</time>
      </trkpt>
      <trkpt lat="44.20087" lon="5.25471">
        <ele>762</ele>
        <time>2018-10-23T05:49:03Z</time>
      </trkpt>
      <trkpt lat="44.20026" lon="5.25192">
        <ele>784</ele>
        <time>2018-10-23T05:50:03Z</time>
      </trkpt>
      <trkpt lat="44.20148" lon="5.25101">
        <ele>736</ele>
        <time>2018-10-23T05:51:03Z</time>
      </trkpt>
      <trkpt lat="44.20122" lon="5.24919">
        <ele>733</ele>
        <time>2018-10-23T05:52:03Z</time>
      </trkpt>
      <trkpt lat="44.202" lon="5.24834">
        <ele>715</ele>
        <time>2018-10-23T05:53:03Z</time>
      </trkpt>
      <trkpt lat="44.20204" lon="5.24998">
        <ele>700</ele>
        <time>2018-10-23T05:54:03Z</time>
      </trkpt>
      <trkpt lat="44.20274" lon="5.25192">
        <ele>667</ele>
        <time>2018-10-23T05:55:03Z</time>
      </trkpt>
      <trkpt lat="44.20209" lon="5.25252">
        <ele>676</ele>
        <time>2018-10-23T05:56:03Z</time>
      </trkpt>
      <trkpt lat="44.20278" lon="5.25689">
        <ele>634</ele>
        <time>2018-10-23T05:57:03Z</time>
      </trkpt>
      <trkpt lat="44.20344" lon="5.25586">
        <ele>611</ele>
        <time>2018-10-23T05:58:03Z</time>
      </trkpt>
      <trkpt lat="44.2037" lon="5.2575">
        <ele>599</ele>
        <time>2018-10-23T05:59:03Z</time>
      </trkpt>
      <trkpt lat="44.20418" lon="5.25859">
        <ele>581</ele>
        <time>2018-10-23T06:00:03Z</time>
      </trkpt>
      <trkpt lat="44.20479" lon="5.2572">
        <ele>564</ele>
        <time>2018-10-23T06:01:03Z</time>
      </trkpt>
      <trkpt lat="44.2047" lon="5.25611">
        <ele>577</ele>
        <time>2018-10-23T06:02:03Z</time>
      </trkpt>
      <trkpt lat="44.20618" lon="5.25762">
        <ele>547</ele>
        <time>2018-10-23T06:03:03Z</time>
      </trkpt>
      <trkpt lat="44.20727" lon="5.2612">
        <ele>471</ele>
        <time>2018-10-23T06:04:03Z</time>
      </trkpt>
      <trkpt lat="44.20853" lon="5.26387">
        <ele>442</ele>
        <time>2018-10-23T06:05:03Z</time>
      </trkpt>
      <trkpt lat="44.21018" lon="5.2646">
        <ele>411</ele>
        <time>2018-10-23T06:06:03Z</time>
      </trkpt>
      <trkpt lat="44.21039" lon="5.26493">
        <ele>408</ele>
        <time>2018-10-23T06:07:03Z</time>
      </trkpt>
      <trkpt lat="44.21043" lon="5.26558">
        <ele>407</ele>
        <time>2018-10-23T06:08:03Z</time>
      </trkpt>
      <trkpt lat="44.21066" lon="5.26545">
        <ele>403</ele>
        <time>2018-10-23T06:09:03Z</time>
      </trkpt>
      <trkpt lat="44.21073" lon="5.26489">
        <ele>403</ele>
        <time>2018-10-23T06:10:03Z</time>
      </trkpt>
      <trkpt lat="44.21096" lon="5.26545">
        <ele>399</ele>
        <time>2018-10-23T06:11:03Z</time>
      </trkpt>
      <trkpt lat="44.21081" lon="5.26619">
        <ele>398</ele>
        <time>2018-10-23T06:12:03Z</time>
      </trkpt>
      <trkpt lat="44.211" lon="5.26679">
        <ele>394</ele>
        <time>2018-10-23T06:13:03Z</time>
      </trkpt>
      <trkpt lat="44.21106" lon="5.26583">
        <ele>396</ele>
        <time>2018-10-23T06:14:03Z</time>
      </trkpt>
      <trkpt lat="44.21173" lon="5.26427">
        <ele>391</ele>
        <time>2018-10-23T06:15:03Z</time>
      </trkpt>
      <trkpt lat="44.21143" lon="5.26305">
        <ele>393</ele>
        <time>2018-10-23T06:16:03Z</time>
      </trkpt>
      <trkpt lat="44.21153" lon="5.26226">
        <ele>390</ele>
        <time>2018-10-23T06:17:03Z</time>
      </trkpt>
      <trkpt lat="44.21129" lon="5.26057">
        <ele>391</ele>
        <time>2018-10-23T06:18:03Z</time>
      </trkpt>
      <trkpt lat="44.21126" lon="5.25946">
        <ele>392</ele>
        <time>2018-10-23T06:19:03Z</time>
      </trkpt>
      <trkpt lat="44.21142" lon="5.2583">
        <ele>391</ele>
        <time>2018-10-23T06:20:03Z</time>
      </trkpt>
      <trkpt lat="44.21165" lon="5.25632">
        <ele>391</ele>
        <time>2018-10-23T06:21:03Z</time>
      </trkpt>
      <trkpt lat="44.2138" lon="5.25541">
        <ele>386</ele>
        <time>2018-10-23T06:22:03Z</time>
      </trkpt>
      <trkpt lat="44.21431" lon="5.25765">
        <ele>388</ele>
        <time>2018-10-23T06:23:03Z</time>
      </trkpt>
      <trkpt lat="44.21395" lon="5.2592">
        <ele>384</ele>
        <time>2018-10-23T06:24:03Z</time>
      </trkpt>
      <trkpt lat="44.21392" lon="5.26245">
        <ele>387</ele>
        <time>2018-10-23T06:25:03Z</time>
      </trkpt>
      <trkpt lat="44.21328" lon="5.26357">
        <ele>387</ele>
        <time>2018-10-23T06:26:03Z</time>
      </trkpt>
      <trkpt lat="44.21336" lon="5.26494">
        <ele>391</ele>
        <time>2018-10-23T06:27:03Z</time>
      </trkpt>
      <trkpt lat="44.21377" lon="5.26433">
        <ele>398</ele>
        <time>2018-10-23T06:28:03Z</time>
      </trkpt>
      <trkpt lat="44.21444" lon="5.26794">
        <ele>417</ele>
        <time>2018-10-23T06:29:03Z</time>
      </trkpt>
      <trkpt lat="44.21473" lon="5.26402">
        <ele>423</ele>
        <time>2018-10-23T06:30:03Z</time>
      </trkpt>
      <trkpt lat="44.2155" lon="5.26214">
        <ele>435</ele>
        <time>2018-10-23T06:31:03Z</time>
      </trkpt>
      <trkpt lat="44.21607" lon="5.25781">
        <ele>439</ele>
        <time>2018-10-23T06:32:03Z</time>
      </trkpt>
      <trkpt lat="44.21659" lon="5.25363">
        <ele>462</ele>
        <time>2018-10-23T06:33:03Z</time>
      </trkpt>
      <trkpt lat="44.2169" lon="5.25175">
        <ele>470</ele>
        <time>2018-10-23T06:34:03Z</time>
      </trkpt>
      <trkpt lat="44.21768" lon="5.25024">
        <ele>480</ele>
        <time>2018-10-23T06:35:03Z</time>
      </trkpt>
      <trkpt lat="44.21835" lon="5.24886">
        <ele>495</ele>
        <time>2018-10-23T06:36:03Z</time>
      </trkpt>
      <trkpt lat="44.217" lon="5.24619">
        <ele>498</ele>
        <time>2018-10-23T06:37:03Z</time>
      </trkpt>
      <trkpt lat="44.21835" lon="5.2436">
        <ele>525</ele>
        <time>2018-10-23T06:38:03Z</time>
      </trkpt>
      <trkpt lat="44.21736" lon="5.24302">
        <ele>520</ele>
        <time>2018-10-23T06:39:03Z</time>
      </trkpt>
      <trkpt lat="44.21664" lon="5.24078">
        <ele>523</ele>
        <time>2018-10-23T06:40:03Z</time>
      </trkpt>
      <trkpt lat="44.21695" lon="5.23912">
        <ele>517</ele>
        <time>2018-10-23T06:41:03Z</time>
      </trkpt>
      <trkpt lat="44.21974" lon="5.23761">
        <ele>571</ele>
        <time>2018-10-23T06:42:03Z</time>
      </trkpt>
      <trkpt lat="44.21949" lon="5.23595">
        <ele>573</ele>
        <time>2018-10-23T06:43:03Z</time>
      </trkpt>
      <trkpt lat="44.21861" lon="5.23493">
        <ele>571</ele>
        <time>2018-10-23T06:44:03Z</time>
      </trkpt>
      <trkpt lat="44.21969" lon="5.23234">
        <ele>600</ele>
        <time>2018-10-23T06:45:03Z</time>
      </trkpt>
      <trkpt lat="44.2213" lon="5.23515">
        <ele>621</ele>
        <time>2018-10-23T06:46:03Z</time>
      </trkpt>
      <trkpt lat="44.22197" lon="5.2389">
        <ele>641</ele>
        <time>2018-10-23T06:47:03Z</time>
      </trkpt>
      <trkpt lat="44.2228" lon="5.23371">
        <ele>676</ele>
        <time>2018-10-23T06:48:03Z</time>
      </trkpt>
      <trkpt lat="44.223" lon="5.23032">
        <ele>690</ele>
        <time>2018-10-23T06:49:03Z</time>
      </trkpt>
      <trkpt lat="44.22518" lon="5.22873">
        <ele>730</ele>
        <time>2018-10-23T06:50:03Z</time>
      </trkpt>
      <trkpt lat="44.22378" lon="5.22692">
        <ele>719</ele>
        <time>2018-10-23T06:51:03Z</time>
      </trkpt>
      <trkpt lat="44.22507" lon="5.2247">
        <ele>746</ele>
        <time>2018-10-23T06:52:03Z</time>
      </trkpt>
      <trkpt lat="44.2247" lon="5.22669">
        <ele>751</ele>
        <time>2018-10-23T06:53:03Z</time>
      </trkpt>
      <trkpt lat="44.22558" lon="5.22516">
        <ele>774</ele>
        <time>2018-10-23T06:54:03Z</time>
      </trkpt>
      <trkpt lat="44.2254" lon="5.22357">
        <ele>774</ele>
        <time>2018-10-23T06:55:03Z</time>
      </trkpt>
      <trkpt lat="44.22551" lon="5.22072">
        <ele>792</ele>
        <time>2018-10-23T06:56:03Z</time>
      </trkpt>
      <trkpt lat="44.22617" lon="5.21918">
        <ele>801</ele>
        <time>2018-10-23T06:57:03Z</time>
      </trkpt>
      <trkpt lat="44.22789" lon="5.21867">
        <ele>814</ele>
        <time>2018-10-23T06:58:03Z</time>
      </trkpt>
      <trkpt lat="44.22898" lon="5.22087">
        <ele>847</ele>
        <time>2018-10-23T06:59:03Z</time>
      </trkpt>
      <trkpt lat="44.23063" lon="5.22">
        <ele>820</ele>
        <time>2018-10-23T07:00:03Z</time>
      </trkpt>
      <trkpt lat="44.23224" lon="5.22413">
        <ele>796</ele>
        <time>2018-10-23T07:01:03Z</time>
      </trkpt>
      <trkpt lat="44.23242" lon="5.22597">
        <ele>796</ele>
        <time>2018-10-23T07:02:03Z</time>
      </trkpt>
      <trkpt lat="44.23268" lon="5.22388">
        <ele>761</ele>
        <time>2018-10-23T07:03:03Z</time>
      </trkpt>
      <trkpt lat="44.23249" lon="5.22128">
        <ele>748</ele>
        <time>2018-10-23T07:04:03Z</time>
      </trkpt>
      <trkpt lat="44.23184" lon="5.21806">
        <ele>722</ele>
        <time>2018-10-23T07:05:03Z</time>
      </trkpt>
      <trkpt lat="44.23151" lon="5.21551">
        <ele>702</ele>
        <time>2018-10-23T07:06:03Z</time>
      </trkpt>
      <trkpt lat="44.23132" lon="5.21229">
        <ele>668</ele>
        <time>2018-10-23T07:07:03Z</time>
      </trkpt>
      <trkpt lat="44.23242" lon="5.21663">
        <ele>657</ele>
        <time>2018-10-23T07:08:03Z</time>
      </trkpt>
      <trkpt lat="44.2352" lon="5.22444">
        <ele>587</ele>
        <time>2018-10-23T07:09:03Z</time>
      </trkpt>
      <trkpt lat="44.23502" lon="5.22036">
        <ele>551</ele>
        <time>2018-10-23T07:10:03Z</time>
      </trkpt>
      <trkpt lat="44.23418" lon="5.21393">
        <ele>501</ele>
        <time>2018-10-23T07:11:03Z</time>
      </trkpt>
      <trkpt lat="44.23527" lon="5.21684">
        <ele>476</ele>
        <time>2018-10-23T07:12:03Z</time>
      </trkpt>
      <trkpt lat="44.23505" lon="5.21393">
        <ele>445</ele>
        <time>2018-10-23T07:13:03Z</time>
      </trkpt>
      <trkpt lat="44.23615" lon="5.21612">
        <ele>422</ele>
        <time>2018-10-23T07:14:03Z</time>
      </trkpt>
      <trkpt lat="44.23652" lon="5.21464">
        <ele>396</ele>
        <time>2018-10-23T07:15:03Z</time>
      </trkpt>
      <trkpt lat="44.23688" lon="5.21592">
        <ele>392</ele>
        <time>2018-10-23T07:16:03Z</time>
      </trkpt>
      <trkpt lat="44.2382" lon="5.21556">
        <ele>355</ele>
        <time>2018-10-23T07:17:03Z</time>
      </trkpt>
      <trkpt lat="44.24076" lon="5.21418">
        <ele>299</ele>
        <time>2018-10-23T07:18:03Z</time>
      </trkpt>
      <trkpt lat="44.2427" lon="5.21648">
        <ele>300</ele>
        <time>2018-10-23T07:19:03Z</time>
      </trkpt>
      <trkpt lat="44.24317" lon="5.21837">
        <ele>301</ele>
        <time>2018-10-23T07:20:03Z</time>
      </trkpt>
      <trkpt lat="44.24471" lon="5.21893">
        <ele>295</ele>
        <time>2018-10-23T07:21:03Z</time>
      </trkpt>
      <trkpt lat="44.24504" lon="5.21776">
        <ele>301</ele>
        <time>2018-10-23T07:22:03Z</time>
      </trkpt>
      <trkpt lat="44.24664" lon="5.21837">
        <ele>306</ele>
        <time>2018-10-23T07:23:03Z</time>
      </trkpt>
      <trkpt lat="44.24851" lon="5.21903">
        <ele>311</ele>
        <time>2018-10-23T07:24:03Z</time>
      </trkpt>
      <trkpt lat="44.25059" lon="5.21939">
        <ele>323</ele>
        <time>2018-10-23T07:25:03Z</time>
      </trkpt>
      <trkpt lat="44.25392" lon="5.2199">
        <ele>384</ele>
        <time>2018-10-23T07:26:03Z</time>
      </trkpt>
      <trkpt lat="44.25491" lon="5.22117">
        <ele>398</ele>
        <time>2018-10-23T07:27:03Z</time>
      </trkpt>
      <trkpt lat="44.2564" lon="5.22235">
        <ele>402</ele>
        <time>2018-10-23T07:28:03Z</time>
      </trkpt>
      <trkpt lat="44.25823" lon="5.22388">
        <ele>393</ele>
        <time>2018-10-23T07:29:03Z</time>
      </trkpt>
      <trkpt lat="44.26002" lon="5.22352">
        <ele>400</ele>
        <time>2018-10-23T07:30:03Z</time>
      </trkpt>
      <trkpt lat="44.26068" lon="5.22495">
        <ele>395</ele>
        <time>2018-10-23T07:31:03Z</time>
      </trkpt>
      <trkpt lat="44.26222" lon="5.22434">
        <ele>417</ele>
        <time>2018-10-23T07:32:03Z</time>
      </trkpt>
      <trkpt lat="44.26441" lon="5.22311">
        <ele>457</ele>
        <time>2018-10-23T07:33:03Z</time>
      </trkpt>
      <trkpt lat="44.2662" lon="5.2224">
        <ele>484</ele>
        <time>2018-10-23T07:34:03Z</time>
      </trkpt>
      <trkpt lat="44.26795" lon="5.22291">
        <ele>501</ele>
        <time>2018-10-23T07:35:03Z</time>
      </trkpt>
      <trkpt lat="44.26861" lon="5.22227">
        <ele>519</ele>
        <time>2018-10-23T07:36:03Z</time>
      </trkpt>
      <trkpt lat="44.26953" lon="5.22304">
        <ele>511</ele>
        <time>2018-10-23T07:37:03Z</time>
      </trkpt>
      <trkpt lat="44.27077" lon="5.22286">
        <ele>530</ele>
        <time>2018-10-23T07:38:03Z</time>
      </trkpt>
      <trkpt lat="44.27091" lon="5.22169">
        <ele>536</ele>
        <time>2018-10-23T07:39:03Z</time>
      </trkpt>
      <trkpt lat="44.27281" lon="5.22041">
        <ele>552</ele>
        <time>2018-10-23T07:40:03Z</time>
      </trkpt>
      <trkpt lat="44.27508" lon="5.22005">
        <ele>558</ele>
        <time>2018-10-23T07:41:03Z</time>
      </trkpt>
      <trkpt lat="44.27409" lon="5.22117">
        <ele>578</ele>
        <time>2018-10-23T07:42:03Z</time>
      </trkpt>
      <trkpt lat="44.27365" lon="5.22281">
        <ele>598</ele>
        <time>2018-10-23T07:43:03Z</time>
      </trkpt>
      <trkpt lat="44.27376" lon="5.22362">
        <ele>597</ele>
        <time>2018-10-23T07:44:03Z</time>
      </trkpt>
      <trkpt lat="44.27669" lon="5.22434">
        <ele>588</ele>
        <time>2018-10-23T07:45:03Z</time>
      </trkpt>
      <trkpt lat="44.27683" lon="5.22607">
        <ele>581</ele>
        <time>2018-10-23T07:46:03Z</time>
      </trkpt>
      <trkpt lat="44.27629" lon="5.22832">
        <ele>550</ele>
        <time>2018-10-23T07:47:03Z</time>
      </trkpt>
      <trkpt lat="44.27753" lon="5.22898">
        <ele>538</ele>
        <time>2018-10-23T07:48:03Z</time>
      </trkpt>
      <trkpt lat="44.2783" lon="5.23184">
        <ele>519</ele>
        <time>2018-10-23T07:49:03Z</time>
      </trkpt>
      <trkpt lat="44.27833" lon="5.23353">
        <ele>503</ele>
        <time>2018-10-23T07:50:03Z</time>
      </trkpt>
      <trkpt lat="44.27939" lon="5.23184">
        <ele>500</ele>
        <time>2018-10-23T07:51:03Z</time>
      </trkpt>
      <trkpt lat="44.2806" lon="5.23108">
        <ele>482</ele>
        <time>2018-10-23T07:52:03Z</time>
      </trkpt>
      <trkpt lat="44.28074" lon="5.23169">
        <ele>477</ele>
        <time>2018-10-23T07:53:03Z</time>
      </trkpt>
      <trkpt lat="44.28107" lon="5.23">
        <ele>469</ele>
        <time>2018-10-23T07:54:03Z</time>
      </trkpt>
      <trkpt lat="44.28082" lon="5.22944">
        <ele>476</ele>
        <time>2018-10-23T07:55:03Z</time>
      </trkpt>
      <trkpt lat="44.28235" lon="5.23036">
        <ele>456</ele>
        <time>2018-10-23T07:56:03Z</time>
      </trkpt>
      <trkpt lat="44.28549" lon="5.22949">
        <ele>478</ele>
        <time>2018-10-23T07:57:03Z</time>
      </trkpt>
      <trkpt lat="44.28703" lon="5.23046">
        <ele>462</ele>
        <time>2018-10-23T07:58:03Z</time>
      </trkpt>
      <trkpt lat="44.28845" lon="5.2296">
        <ele>459</ele>
        <time>2018-10-23T07:59:03Z</time>
      </trkpt>
      <trkpt lat="44.29053" lon="5.23138">
        <ele>499</ele>
        <time>2018-10-23T08:00:03Z</time>
      </trkpt>
      <trkpt lat="44.29105" lon="5.2324">
        <ele>512</ele>
        <time>2018-10-23T08:01:03Z</time>
      </trkpt>
      <trkpt lat="44.29141" lon="5.23307">
        <ele>519</ele>
        <time>2018-10-23T08:02:03Z</time>
      </trkpt>
      <trkpt lat="44.29251" lon="5.23266">
        <ele>534</ele>
        <time>2018-10-23T08:03:03Z</time>
      </trkpt>
      <trkpt lat="44.29262" lon="5.23393">
        <ele>537</ele>
        <time>2018-10-23T08:04:03Z</time>
      </trkpt>
      <trkpt lat="44.29368" lon="5.23516">
        <ele>559</ele>
        <time>2018-10-23T08:05:03Z</time>
      </trkpt>
      <trkpt lat="44.29466" lon="5.23393">
        <ele>580</ele>
        <time>2018-10-23T08:06:03Z</time>
      </trkpt>
      <trkpt lat="44.29517" lon="5.23143">
        <ele>596</ele>
        <time>2018-10-23T08:07:03Z</time>
      </trkpt>
      <trkpt lat="44.29718" lon="5.23199">
        <ele>628</ele>
        <time>2018-10-23T08:08:03Z</time>
      </trkpt>
      <trkpt lat="44.29857" lon="5.23368">
        <ele>667</ele>
        <time>2018-10-23T08:09:03Z</time>
      </trkpt>
      <trkpt lat="44.29821" lon="5.2346">
        <ele>667</ele>
        <time>2018-10-23T08:10:03Z</time>
      </trkpt>
      <trkpt lat="44.29864" lon="5.23603">
        <ele>693</ele>
        <time>2018-10-23T08:11:03Z</time>
      </trkpt>
      <trkpt lat="44.29937" lon="5.23455">
        <ele>695</ele>
        <time>2018-10-23T08:12:03Z</time>
      </trkpt>
      <trkpt lat="44.29923" lon="5.23649">
        <ele>724</ele>
        <time>2018-10-23T08:13:03Z</time>
      </trkpt>
      <trkpt lat="44.29839" lon="5.23842">
        <ele>735</ele>
        <time>2018-10-23T08:14:03Z</time>
      </trkpt>
      <trkpt lat="44.30054" lon="5.23562">
        <ele>763</ele>
        <time>2018-10-23T08:15:03Z</time>
      </trkpt>
      <trkpt lat="44.30237" lon="5.23444">
        <ele>794</ele>
        <time>2018-10-23T08:16:03Z</time>
      </trkpt>
      <trkpt lat="44.30292" lon="5.23164">
        <ele>807</ele>
        <time>2018-10-23T08:17:03Z</time>
      </trkpt>
      <trkpt lat="44.30383" lon="5.23567">
        <ele>844</ele>
        <time>2018-10-23T08:18:03Z</time>
      </trkpt>
      <trkpt lat="44.30679" lon="5.23368">
        <ele>853</ele>
        <time>2018-10-23T08:19:03Z</time>
      </trkpt>
      <trkpt lat="44.30511" lon="5.23715">
        <ele>835</ele>
        <time>2018-10-23T08:20:03Z</time>
      </trkpt>
      <trkpt lat="44.30507" lon="5.23888">
        <ele>828</ele>
        <time>2018-10-23T08:21:03Z</time>
      </trkpt>
      <trkpt lat="44.3065" lon="5.23919">
        <ele>840</ele>
        <time>2018-10-23T08:22:03Z</time>
      </trkpt>
      <trkpt lat="44.30573" lon="5.24093">
        <ele>812</ele>
        <time>2018-10-23T08:23:03Z</time>
      </trkpt>
      <trkpt lat="44.30635" lon="5.24286">
        <ele>806</ele>
        <time>2018-10-23T08:24:03Z</time>
      </trkpt>
      <trkpt lat="44.30602" lon="5.24567">
        <ele>761</ele>
        <time>2018-10-23T08:25:03Z</time>
      </trkpt>
      <trkpt lat="44.3073" lon="5.2496">
        <ele>729</ele>
        <time>2018-10-23T08:26:03Z</time>
      </trkpt>
      <trkpt lat="44.30661" lon="5.25108">
        <ele>696</ele>
        <time>2018-10-23T08:27:03Z</time>
      </trkpt>
      <trkpt lat="44.30672" lon="5.25297">
        <ele>700</ele>
        <time>2018-10-23T08:28:03Z</time>
      </trkpt>
      <trkpt lat="44.3073" lon="5.25522">
        <ele>685</ele>
        <time>2018-10-23T08:29:03Z</time>
      </trkpt>
      <trkpt lat="44.30715" lon="5.25583">
        <ele>662</ele>
        <time>2018-10-23T08:30:03Z</time>
      </trkpt>
      <trkpt lat="44.30818" lon="5.25654">
        <ele>677</ele>
        <time>2018-10-23T08:31:03Z</time>
      </trkpt>
      <trkpt lat="44.30767" lon="5.26175">
        <ele>702</ele>
        <time>2018-10-23T08:32:03Z</time>
      </trkpt>
      <trkpt lat="44.30913" lon="5.25981">
        <ele>746</ele>
        <time>2018-10-23T08:33:03Z</time>
      </trkpt>
      <trkpt lat="44.30832" lon="5.26461">
        <ele>771</ele>
        <time>2018-10-23T08:34:03Z</time>
      </trkpt>
      <trkpt lat="44.31037" lon="5.26782">
        <ele>782</ele>
        <time>2018-10-23T08:35:03Z</time>
      </trkpt>
      <trkpt lat="44.31015" lon="5.26976">
        <ele>755</ele>
        <time>2018-10-23T08:36:03Z</time>
      </trkpt>
      <trkpt lat="44.31154" lon="5.26991">
        <ele>758</ele>
        <time>2018-10-23T08:37:03Z</time>
      </trkpt>
      <trkpt lat="44.31365" lon="5.26777">
        <ele>730</ele>
        <time>2018-10-23T08:38:03Z</time>
      </trkpt>
      <trkpt lat="44.3134" lon="5.26894">
        <ele>711</ele>
        <time>2018-10-23T08:39:03Z</time>
      </trkpt>
      <trkpt lat="44.31322" lon="5.27109">
        <ele>698</ele>
        <time>2018-10-23T08:40:03Z</time>
      </trkpt>
      <trkpt lat="44.31283" lon="5.27283">
        <ele>701</ele>
        <time>2018-10-23T08:41:03Z</time>
      </trkpt>
      <trkpt lat="44.31278" lon="5.2773">
        <ele>704</ele>
        <time>2018-10-23T08:42:03Z</time>
      </trkpt>
      <trkpt lat="44.31195" lon="5.28004">
        <ele>722</ele>
        <time>2018-10-23T08:43:03Z</time>
      </trkpt>
      <trkpt lat="44.31143" lon="5.28452">
        <ele>751</ele>
        <time>2018-10-23T08:44:03Z</time>
      </trkpt>
      <trkpt lat="44.31111" lon="5.28675">
        <ele>762</ele>
        <time>2018-10-23T08:45:03Z</time>
      </trkpt>
      <trkpt lat="44.3115" lon="5.28748">
        <ele>757</ele>
        <time>2018-10-23T08:46:03Z</time>
      </trkpt>
      <trkpt lat="44.31093" lon="5.28967">
        <ele>786</ele>
        <time>2018-10-23T08:47:03Z</time>
      </trkpt>
      <trkpt lat="44.31128" lon="5.29118">
        <ele>788</ele>
        <time>2018-10-23T08:48:03Z</time>
      </trkpt>
      <trkpt lat="44.31176" lon="5.29301">
        <ele>782</ele>
        <time>2018-10-23T08:49:03Z</time>
      </trkpt>
      <trkpt lat="44.31176" lon="5.29525">
        <ele>785</ele>
        <time>2018-10-23T08:50:03Z</time>
      </trkpt>
      <trkpt lat="44.31189" lon="5.29634">
        <ele>779</ele>
        <time>2018-10-23T08:51:03Z</time>
      </trkpt>
      <trkpt lat="44.31271" lon="5.29774">
        <ele>748</ele>
        <time>2018-10-23T08:52:03Z</time>
      </trkpt>
      <trkpt lat="44.31219" lon="5.29932">
        <ele>750</ele>
        <time>2018-10-23T08:53:03Z</time>
      </trkpt>
      <trkpt lat="44.31245" lon="5.30059">
        <ele>748</ele>
        <time>2018-10-23T08:54:03Z</time>
      </trkpt>
      <trkpt lat="44.31245" lon="5.30241">
        <ele>753</ele>
        <time>2018-10-23T08:55:03Z</time>
      </trkpt>
      <trkpt lat="44.31198" lon="5.30435">
        <ele>758</ele>
        <time>2018-10-23T08:56:03Z</time>
      </trkpt>
      <trkpt lat="44.3118" lon="5.3097">
        <ele>777</ele>
        <time>2018-10-23T08:57:03Z</time>
      </trkpt>
      <trkpt lat="44.31185" lon="5.31309">
        <ele>787</ele>
        <time>2018-10-23T08:58:03Z</time>
      </trkpt>
      <trkpt lat="44.31219" lon="5.31576">
        <ele>783</ele>
        <time>2018-10-23T08:59:03Z</time>
      </trkpt>
      <trkpt lat="44.31159" lon="5.31795">
        <ele>798</ele>
        <time>2018-10-23T09:00:03Z</time>
      </trkpt>
      <trkpt lat="44.31215" lon="5.32092">
        <ele>803</ele>
        <time>2018-10-23T09:01:03Z</time>
      </trkpt>
      <trkpt lat="44.3128" lon="5.32487">
        <ele>774</ele>
        <time>2018-10-23T09:02:03Z</time>
      </trkpt>
      <trkpt lat="44.31228" lon="5.32675">
        <ele>782</ele>
        <time>2018-10-23T09:03:03Z</time>
      </trkpt>
      <trkpt lat="44.31206" lon="5.32839">
        <ele>778</ele>
        <time>2018-10-23T09:04:03Z</time>
      </trkpt>
      <trkpt lat="44.31324" lon="5.3293">
        <ele>741</ele>
        <time>2018-10-23T09:05:03Z</time>
      </trkpt>
      <trkpt lat="44.31193" lon="5.33051">
        <ele>754</ele>
        <time>2018-10-23T09:06:03Z</time>
      </trkpt>
      <trkpt lat="44.31297" lon="5.33391">
        <ele>714</ele>
        <time>2018-10-23T09:07:03Z</time>
      </trkpt>
      <trkpt lat="44.31302" lon="5.33652">
        <ele>719</ele>
        <time>2018-10-23T09:08:03Z</time>
      </trkpt>
      <trkpt lat="44.31376" lon="5.33852">
        <ele>700</ele>
        <time>2018-10-23T09:09:03Z</time>
      </trkpt>
      <trkpt lat="44.31363" lon="5.34083">
        <ele>714</ele>
        <time>2018-10-23T09:10:03Z</time>
      </trkpt>
      <trkpt lat="44.3141" lon="5.34338">
        <ele>733</ele>
        <time>2018-10-23T09:11:03Z</time>
      </trkpt>
      <trkpt lat="44.31402" lon="5.3449">
        <ele>748</ele>
        <time>2018-10-23T09:12:03Z</time>
      </trkpt>
      <trkpt lat="44.31467" lon="5.34769">
        <ele>742</ele>
        <time>2018-10-23T09:13:03Z</time>
      </trkpt>
      <trkpt lat="44.31484" lon="5.34987">
        <ele>771</ele>
        <time>2018-10-23T09:14:03Z</time>
      </trkpt>
      <trkpt lat="44.31558" lon="5.35254">
        <ele>783</ele>
        <time>2018-10-23T09:15:03Z</time>
      </trkpt>
      <trkpt lat="44.31489" lon="5.35315">
        <ele>804</ele>
        <time>2018-10-23T09:16:03Z</time>
      </trkpt>
      <trkpt lat="44.31423" lon="5.35612">
        <ele>784</ele>
        <time>2018-10-23T09:17:03Z</time>
      </trkpt>
      <trkpt lat="44.31436" lon="5.35722">
        <ele>787</ele>
        <time>2018-10-23T09:18:03Z</time>
      </trkpt>
      <trkpt lat="44.3161" lon="5.3588">
        <ele>805</ele>
        <time>2018-10-23T09:19:03Z</time>
      </trkpt>
      <trkpt lat="44.31701" lon="5.36152">
        <ele>805</ele>
        <time>2018-10-23T09:20:03Z</time>
      </trkpt>
      <trkpt lat="44.3165" lon="5.36367">
        <ele>823</ele>
        <time>2018-10-23T09:21:03Z</time>
      </trkpt>
      <trkpt lat="44.31519" lon="5.36566">
        <ele>863</ele>
        <time>2018-10-23T09:22:03Z</time>
      </trkpt>
      <trkpt lat="44.31544" lon="5.37035">
        <ele>891</ele>
        <time>2018-10-23T09:23:03Z</time>
      </trkpt>
      <trkpt lat="44.31639" lon="5.37392">
        <ele>847</ele>
        <time>2018-10-23T09:24:03Z</time>
      </trkpt>
      <trkpt lat="44.31676" lon="5.3776">
        <ele>810</ele>
        <time>2018-10-23T09:25:03Z</time>
      </trkpt>
      <trkpt lat="44.31716" lon="5.37964">
        <ele>793</ele>
        <time>2018-10-23T09:26:03Z</time>
      </trkpt>
      <trkpt lat="44.31628" lon="5.38058">
        <ele>798</ele>
        <time>2018-10-23T09:27:03Z</time>
      </trkpt>
      <trkpt lat="44.3151" lon="5.38168">
        <ele>787</ele>
        <time>2018-10-23T09:28:03Z</time>
      </trkpt>
      <trkpt lat="44.31358" lon="5.38186">
        <ele>776</ele>
        <time>2018-10-23T09:29:03Z</time>
      </trkpt>
      <trkpt lat="44.31328" lon="5.38246">
        <ele>779</ele>
        <time>2018-10-23T09:30:03Z</time>
      </trkpt>
      <trkpt lat="44.31219" lon="5.38234">
        <ele>770</ele>
        <time>2018-10-23T09:31:03Z</time>
      </trkpt>
      <trkpt lat="44.31111" lon="5.38374">
        <ele>774</ele>
        <time>2018-10-23T09:32:03Z</time>
      </trkpt>
      <trkpt lat="44.3102" lon="5.38277">
        <ele>755</ele>
        <time>2018-10-23T09:33:03Z</time>
      </trkpt>
      <trkpt lat="44.30954" lon="5.38277">
        <ele>755</ele>
        <time>2018-10-23T09:34:03Z</time>
      </trkpt>
      <trkpt lat="44.30876" lon="5.38623">
        <ele>780</ele>
        <time>2018-10-23T09:35:03Z</time>
      </trkpt>
      <trkpt lat="44.30846" lon="5.38866">
        <ele>789</ele>
        <time>2018-10-23T09:36:03Z</time>
      </trkpt>
    </trkseg>
  </trk>
</gpx>